Time,TemperatureF,DewpointF,PressureIn,WindDirection,WindDirectionDegrees,WindSpeedMPH,WindSpeedGustMPH,Humidity,HourlyPrecipIn,Conditions,Clouds,dailyrainin,SolarRadiationWatts/m^2,SoftwareType,DateUTC
2013-01-03 13:14:00,77.5,71.9,29.94,ESE,112,3.0,6.0,83,0.00,,,-99.99,306,WeatherLink 5.4,2013-01-03 17:14:00,
2013-01-03 13:15:00,77.6,72.0,29.94,ESE,112,1.0,3.0,83,0.00,,,-99.99,273,WeatherLink 5.4,2013-01-03 17:15:00,
2013-01-03 13:16:00,77.6,72.0,29.94,North,-999,0.0,0.0,83,0.00,,,-99.99,252,WeatherLink 5.4,2013-01-03 17:16:00,
2013-01-03 13:17:00,77.7,72.1,29.94,North,-999,0.0,0.0,83,0.00,,,-99.99,234,WeatherLink 5.4,2013-01-03 17:17:00,
2013-01-03 13:18:00,-999.0,-99.9,29.94,North,-999,0.0,0.0,83,0.00,,,-99.99,234,WeatherLink 5.4,2013-01-03 17:18:00,
2013-01-03 13:19:00,77.7,72.1,29.94,SE,135,4.0,6.0,83,0.00,,,-99.99,243,WeatherLink 5.4,2013-01-03 17:19:00,
2013-01-03 13:20:00,77.7,72.1,29.94,SE,135,3.0,6.0,83,0.00,,,-99.99,250,WeatherLink 5.4,2013-01-03 17:20:00,
2013-01-03 13:21:00,77.8,72.2,29.94,North,-999,0.0,0.0,83,0.00,,,-99.99,245,WeatherLink 5.4,2013-01-03 17:21:00,
2013-01-03 13:22:00,77.9,72.3,29.94,North,-999,0.0,0.0,83,0.00,,,-99.99,234,WeatherLink 5.4,2013-01-03 17:22:00,
2013-01-03 13:23:00,77.9,72.0,29.94,North,-999,0.0,0.0,82,0.00,,,-99.99,230,WeatherLink 5.4,2013-01-03 17:23:00,
2013-01-03 13:24:00,77.9,72.0,29.94,ESE,112,0.0,1.0,82,0.00,,,-99.99,233,WeatherLink 5.4,2013-01-03 17:24:00,
2013-01-03 13:25:00,77.9,71.6,29.94,ESE,112,7.0,11.0,81,0.00,,,-99.99,218,WeatherLink 5.4,2013-01-03 17:25:00,
2013-01-03 13:26:00,77.7,71.4,29.94,ENE,67,4.0,6.0,81,0.00,,,-99.99,202,WeatherLink 5.4,2013-01-03 17:26:00,
2013-01-03 13:27:00,77.7,71.4,29.94,East,90,0.0,3.0,81,0.00,,,-99.99,190,WeatherLink 5.4,2013-01-03 17:27:00,
2013-01-03 13:28:00,77.7,71.4,29.94,SE,135,2.0,8.0,81,0.00,,,-99.99,190,WeatherLink 5.4,2013-01-03 17:28:00,
2013-01-03 13:29:00,77.7,71.4,29.94,SE,135,2.0,5.0,81,0.00,,,-99.99,191,WeatherLink 5.4,2013-01-03 17:29:00,
2013-01-03 13:30:00,77.7,71.4,29.93,ESE,112,3.0,7.0,81,0.00,,,-99.99,172,WeatherLink 5.4,2013-01-03 17:30:00,
2013-01-03 13:31:00,77.7,71.4,29.93,ESE,112,2.0,5.0,81,0.00,,,-99.99,157,WeatherLink 5.4,2013-01-03 17:31:00,
2013-01-03 13:32:00,77.7,71.4,29.93,ESE,112,4.0,7.0,81,0.00,,,-99.99,146,WeatherLink 5.4,2013-01-03 17:32:00,
2013-01-03 13:33:00,77.7,71.8,29.93,ESE,112,0.0,1.0,82,0.00,,,-99.99,143,WeatherLink 5.4,2013-01-03 17:33:00,
2013-01-03 13:34:00,77.7,71.8,29.93,North,-999,0.0,0.0,82,0.00,,,-99.99,146,WeatherLink 5.4,2013-01-03 17:34:00,
2013-01-03 13:35:00,77.7,72.1,29.93,North,-999,0.0,0.0,83,0.00,,,-99.99,146,WeatherLink 5.4,2013-01-03 17:35:00,
2013-01-03 13:36:00,77.7,72.1,29.93,North,-999,0.0,0.0,83,0.00,,,-99.99,139,WeatherLink 5.4,2013-01-03 17:36:00,
2013-01-03 13:37:00,77.7,72.5,29.93,North,-999,0.0,0.0,84,0.00,,,-99.99,141,WeatherLink 5.4,2013-01-03 17:37:00,
2013-01-03 13:38:00,77.7,72.5,29.93,North,-999,0.0,0.0,84,0.00,,,-99.99,153,WeatherLink 5.4,2013-01-03 17:38:00,
2013-01-03 13:39:00,77.7,72.1,29.93,North,-999,0.0,0.0,83,0.00,,,-99.99,151,WeatherLink 5.4,2013-01-03 17:39:00,
2013-01-03 13:40:00,77.6,72.4,29.93,North,-999,0.0,0.0,84,0.00,,,-99.99,139,WeatherLink 5.4,2013-01-03 17:40:00,
2013-01-03 13:41:00,77.6,72.4,29.93,North,-999,0.0,0.0,84,0.00,,,-99.99,121,WeatherLink 5.4,2013-01-03 17:41:00,
2013-01-03 13:42:00,77.6,72.4,29.93,North,-999,0.0,0.0,84,0.00,,,-99.99,106,WeatherLink 5.4,2013-01-03 17:42:00,
2013-01-03 13:43:00,77.5,72.3,29.93,North,-999,0.0,0.0,84,0.00,,,-99.99,93,WeatherLink 5.4,2013-01-03 17:43:00,
2013-01-03 13:44:00,77.4,72.2,29.93,North,-999,0.0,0.0,84,0.00,,,-99.99,77,WeatherLink 5.4,2013-01-03 17:44:00,
2013-01-03 13:45:00,77.4,72.2,29.93,SSE,157,2.0,8.0,84,0.00,,,-99.99,67,WeatherLink 5.4,2013-01-03 17:45:00,
2013-01-03 13:46:00,77.3,71.7,29.93,SSE,157,0.0,2.0,83,0.00,,,-99.99,70,WeatherLink 5.4,2013-01-03 17:46:00,
2013-01-03 13:47:00,77.2,72.0,29.93,SSE,157,1.0,6.0,84,0.00,,,-99.99,81,WeatherLink 5.4,2013-01-03 17:47:00,
2013-01-03 13:48:00,77.0,71.8,29.93,North,-999,0.0,0.0,84,0.01,,,-99.99,91,WeatherLink 5.4,2013-01-03 17:48:00,
2013-01-03 13:49:00,76.8,71.6,29.93,SE,135,2.0,5.0,84,0.03,,,-99.99,115,WeatherLink 5.4,2013-01-03 17:49:00,
2013-01-03 13:50:00,76.8,71.6,29.93,SE,135,2.0,5.0,84,0.04,,,-99.99,141,WeatherLink 5.4,2013-01-03 17:50:00,
2013-01-03 13:51:00,76.6,71.4,29.93,SSE,157,0.0,2.0,84,0.05,,,-99.99,169,WeatherLink 5.4,2013-01-03 17:51:00,
2013-01-03 13:52:00,76.3,71.1,29.93,North,-999,0.0,0.0,84,0.06,,,-99.99,195,WeatherLink 5.4,2013-01-03 17:52:00,
2013-01-03 13:53:00,76.1,70.9,29.93,North,-999,0.0,0.0,84,0.06,,,-99.99,213,WeatherLink 5.4,2013-01-03 17:53:00,
2013-01-03 13:54:00,76.0,70.8,29.93,North,-999,0.0,0.0,84,0.06,,,-99.99,233,WeatherLink 5.4,2013-01-03 17:54:00,
2013-01-03 13:55:00,75.8,71.0,29.93,North,-999,0.0,0.0,85,0.06,,,-99.99,246,WeatherLink 5.4,2013-01-03 17:55:00,
2013-01-03 13:56:00,75.8,71.0,29.93,North,-999,0.0,0.0,85,0.06,,,-99.99,252,WeatherLink 5.4,2013-01-03 17:56:00,
2013-01-03 13:57:00,75.8,71.0,29.93,North,-999,0.0,0.0,85,0.06,,,-99.99,259,WeatherLink 5.4,2013-01-03 17:57:00,
2013-01-03 13:58:00,75.6,71.1,29.93,North,-999,0.0,0.0,86,0.06,,,-99.99,274,WeatherLink 5.4,2013-01-03 17:58:00,
2013-01-03 13:59:00,75.6,71.1,29.93,North,-999,0.0,0.0,86,0.06,,,-99.99,291,WeatherLink 5.4,2013-01-03 17:59:00,
2013-01-03 14:00:00,75.6,71.1,29.92,North,-999,0.0,0.0,86,0.06,,,-99.99,306,WeatherLink 5.4,2013-01-03 18:00:00,
2013-01-03 14:01:00,75.6,71.1,29.92,North,-999,0.0,0.0,86,0.06,,,-99.99,315,WeatherLink 5.4,2013-01-03 18:01:00,
2013-01-03 14:02:00,75.7,71.2,29.92,North,-999,0.0,0.0,86,0.06,,,-99.99,326,WeatherLink 5.4,2013-01-03 18:02:00,
2013-01-03 14:03:00,75.8,71.7,29.92,North,-999,0.0,0.0,87,0.06,,,-99.99,336,WeatherLink 5.4,2013-01-03 18:03:00,
2013-01-03 14:04:00,75.8,71.7,29.92,North,-999,0.0,0.0,87,0.06,,,-99.99,354,WeatherLink 5.4,2013-01-03 18:04:00,
2013-01-03 14:05:00,75.8,71.3,29.92,North,-999,0.0,0.0,86,0.06,,,-99.99,345,WeatherLink 5.4,2013-01-03 18:05:00,
2013-01-03 14:06:00,75.6,71.1,29.92,North,-999,0.0,0.0,86,0.06,,,-99.99,334,WeatherLink 5.4,2013-01-03 18:06:00,
2013-01-03 14:07:00,75.6,71.1,29.92,North,-999,0.0,0.0,86,0.06,,,-99.99,324,WeatherLink 5.4,2013-01-03 18:07:00,
2013-01-03 14:08:00,75.6,71.1,29.92,North,-999,0.0,0.0,86,0.06,,,-99.99,315,WeatherLink 5.4,2013-01-03 18:08:00,
2013-01-03 14:09:00,75.6,71.1,29.92,North,-999,0.0,0.0,86,0.06,,,-99.99,308,WeatherLink 5.4,2013-01-03 18:09:00,
2013-01-03 14:10:00,75.6,71.1,29.92,North,-999,0.0,0.0,86,0.06,,,-99.99,313,WeatherLink 5.4,2013-01-03 18:10:00,
2013-01-03 14:11:00,75.6,71.5,29.92,North,-999,0.0,0.0,87,0.06,,,-99.99,322,WeatherLink 5.4,2013-01-03 18:11:00,
2013-01-03 14:12:00,75.6,71.1,29.92,North,-999,0.0,0.0,86,0.06,,,-99.99,334,WeatherLink 5.4,2013-01-03 18:12:00,
2013-01-03 14:13:00,75.6,71.1,29.92,North,-999,0.0,0.0,86,0.06,,,-99.99,347,WeatherLink 5.4,2013-01-03 18:13:00,
2013-01-03 14:14:00,75.6,71.5,29.92,North,-999,0.0,0.0,87,0.06,,,-99.99,380,WeatherLink 5.4,2013-01-03 18:14:00,
2013-01-03 14:15:00,75.8,71.3,29.92,North,-999,0.0,0.0,86,0.06,,,-99.99,410,WeatherLink 5.4,2013-01-03 18:15:00,
2013-01-03 14:16:00,75.8,71.3,29.92,North,-999,0.0,0.0,86,0.06,,,-99.99,415,WeatherLink 5.4,2013-01-03 18:16:00,
2013-01-03 14:17:00,75.8,71.3,29.92,North,-999,0.0,0.0,86,0.06,,,-99.99,447,WeatherLink 5.4,2013-01-03 18:17:00,
2013-01-03 14:18:00,75.7,71.2,29.92,North,-999,0.0,0.0,86,0.06,,,-99.99,447,WeatherLink 5.4,2013-01-03 18:18:00,
2013-01-03 14:19:00,75.6,71.1,29.92,North,-999,0.0,0.0,86,0.06,,,-99.99,447,WeatherLink 5.4,2013-01-03 18:19:00,
2013-01-03 14:20:00,75.6,71.1,29.92,North,-999,0.0,0.0,86,0.06,,,-99.99,380,WeatherLink 5.4,2013-01-03 18:20:00,
2013-01-03 14:21:00,75.8,71.3,29.92,North,-999,0.0,0.0,86,0.06,,,-99.99,377,WeatherLink 5.4,2013-01-03 18:21:00,
2013-01-03 14:22:00,75.8,71.3,29.92,North,-999,0.0,0.0,86,0.06,,,-99.99,385,WeatherLink 5.4,2013-01-03 18:22:00,
2013-01-03 14:23:00,75.8,71.3,29.92,North,-999,0.0,0.0,86,0.06,,,-99.99,398,WeatherLink 5.4,2013-01-03 18:23:00,
2013-01-03 14:24:00,75.8,71.3,29.92,North,-999,0.0,0.0,86,0.06,,,-99.99,428,WeatherLink 5.4,2013-01-03 18:24:00,
2013-01-03 14:25:00,75.8,71.3,29.92,North,-999,0.0,0.0,86,0.06,,,-99.99,428,WeatherLink 5.4,2013-01-03 18:25:00,
2013-01-03 14:26:00,75.8,71.3,29.92,North,-999,0.0,0.0,86,0.06,,,-99.99,457,WeatherLink 5.4,2013-01-03 18:26:00,
2013-01-03 14:27:00,76.0,71.5,29.92,North,-999,0.0,0.0,86,0.06,,,-99.99,415,WeatherLink 5.4,2013-01-03 18:27:00,
2013-01-03 14:28:00,76.0,71.5,29.92,North,-999,0.0,0.0,86,0.06,,,-99.99,391,WeatherLink 5.4,2013-01-03 18:28:00,
2013-01-03 14:29:00,76.0,71.5,29.92,North,-999,0.0,0.0,86,0.06,,,-99.99,368,WeatherLink 5.4,2013-01-03 18:29:00,
2013-01-03 14:30:00,76.1,71.6,29.91,North,-999,0.0,0.0,86,0.06,,,-99.99,359,WeatherLink 5.4,2013-01-03 18:30:00,
2013-01-03 14:31:00,76.1,71.6,29.91,North,-999,0.0,0.0,86,0.06,,,-99.99,357,WeatherLink 5.4,2013-01-03 18:31:00,
2013-01-03 14:32:00,76.1,71.6,29.91,North,-999,0.0,0.0,86,0.06,,,-99.99,357,WeatherLink 5.4,2013-01-03 18:32:00,
2013-01-03 14:33:00,76.1,71.6,29.91,North,-999,0.0,0.0,86,0.06,,,-99.99,364,WeatherLink 5.4,2013-01-03 18:33:00,
2013-01-03 14:34:00,76.1,71.6,29.91,North,-999,0.0,0.0,86,0.06,,,-99.99,364,WeatherLink 5.4,2013-01-03 18:34:00,
2013-01-03 14:35:00,76.3,71.8,29.91,North,-999,0.0,0.0,86,0.06,,,-99.99,465,WeatherLink 5.4,2013-01-03 18:35:00,
2013-01-03 14:36:00,76.3,71.8,29.91,North,-999,0.0,0.0,86,0.06,,,-99.99,463,WeatherLink 5.4,2013-01-03 18:36:00,
2013-01-03 14:37:00,76.4,71.9,29.91,North,-999,0.0,0.0,86,0.06,,,-99.99,487,WeatherLink 5.4,2013-01-03 18:37:00,
2013-01-03 14:38:00,76.5,71.7,29.91,North,-999,0.0,0.0,85,0.06,,,-99.99,479,WeatherLink 5.4,2013-01-03 18:38:00,
2013-01-03 14:39:00,76.5,71.7,29.91,North,-999,0.0,0.0,85,0.06,,,-99.99,424,WeatherLink 5.4,2013-01-03 18:39:00,
2013-01-03 14:40:00,76.5,71.7,29.91,North,-999,0.0,0.0,85,0.06,,,-99.99,421,WeatherLink 5.4,2013-01-03 18:40:00,
2013-01-03 14:41:00,76.6,71.7,29.91,North,-999,0.0,0.0,85,0.06,,,-99.99,461,WeatherLink 5.4,2013-01-03 18:41:00,
2013-01-03 14:42:00,76.7,71.8,29.91,North,-999,0.0,0.0,85,0.06,,,-99.99,505,WeatherLink 5.4,2013-01-03 18:42:00,
2013-01-03 14:43:00,76.7,71.8,29.91,North,-999,0.0,0.0,85,0.06,,,-99.99,505,WeatherLink 5.4,2013-01-03 18:43:00,
2013-01-03 14:44:00,76.8,71.9,29.91,North,-999,0.0,0.0,85,0.06,,,-99.99,466,WeatherLink 5.4,2013-01-03 18:44:00,
2013-01-03 14:45:00,76.9,72.0,29.91,North,-999,0.0,0.0,85,0.06,,,-99.99,472,WeatherLink 5.4,2013-01-03 18:45:00,
2013-01-03 14:46:00,77.0,72.1,29.91,North,-999,0.0,0.0,85,0.06,,,-99.99,475,WeatherLink 5.4,2013-01-03 18:46:00,
2013-01-03 14:47:00,77.0,72.1,29.91,North,-999,0.0,0.0,85,0.06,,,-99.99,475,WeatherLink 5.4,2013-01-03 18:47:00,
2013-01-03 14:48:00,77.2,72.3,29.91,North,-999,0.0,0.0,85,0.05,,,-99.99,665,WeatherLink 5.4,2013-01-03 18:48:00,
2013-01-03 14:49:00,77.2,72.3,29.91,North,-999,0.0,0.0,85,0.03,,,-99.99,665,WeatherLink 5.4,2013-01-03 18:49:00,
2013-01-03 14:50:00,77.4,72.5,29.91,North,-999,0.0,0.0,85,0.02,,,-99.99,665,WeatherLink 5.4,2013-01-03 18:50:00,
2013-01-03 14:51:00,77.5,72.6,29.91,North,-999,0.0,0.0,85,0.01,,,-99.99,665,WeatherLink 5.4,2013-01-03 18:51:00,
2013-01-03 14:52:00,77.6,72.7,29.91,North,-999,0.0,0.0,85,0.00,,,-99.99,665,WeatherLink 5.4,2013-01-03 18:52:00,
2013-01-03 14:53:00,77.8,72.9,29.91,North,-999,0.0,0.0,85,0.00,,,-99.99,359,WeatherLink 5.4,2013-01-03 18:53:00,
2013-01-03 14:54:00,78.0,73.1,29.91,North,-999,0.0,0.0,85,0.00,,,-99.99,406,WeatherLink 5.4,2013-01-03 18:54:00,
2013-01-03 14:55:00,78.1,72.9,29.91,North,-999,0.0,0.0,84,0.00,,,-99.99,406,WeatherLink 5.4,2013-01-03 18:55:00,
2013-01-03 14:56:00,78.1,72.9,29.91,North,-999,0.0,0.0,84,0.00,,,-99.99,406,WeatherLink 5.4,2013-01-03 18:56:00,
2013-01-03 14:57:00,78.1,72.9,29.91,North,-999,0.0,0.0,84,0.00,,,-99.99,406,WeatherLink 5.4,2013-01-03 18:57:00,
2013-01-03 14:58:00,78.3,73.1,29.91,North,-999,0.0,0.0,84,0.00,,,-99.99,266,WeatherLink 5.4,2013-01-03 18:58:00,
2013-01-03 14:59:00,78.3,73.1,29.91,North,-999,0.0,0.0,84,0.00,,,-99.99,269,WeatherLink 5.4,2013-01-03 18:59:00,
2013-01-03 15:00:00,78.3,73.1,29.91,North,-999,0.0,0.0,84,0.00,,,-99.99,303,WeatherLink 5.4,2013-01-03 19:00:00,
2013-01-03 15:01:00,78.5,73.3,29.91,North,-999,0.0,0.0,84,0.00,,,-99.99,327,WeatherLink 5.4,2013-01-03 19:01:00,
2013-01-03 15:02:00,78.5,73.3,29.91,North,-999,0.0,0.0,84,0.00,,,-99.99,338,WeatherLink 5.4,2013-01-03 19:02:00,
2013-01-03 15:03:00,78.5,72.5,29.91,NE,45,1.0,6.0,82,0.00,,,-99.99,315,WeatherLink 5.4,2013-01-03 19:03:00,
2013-01-03 15:04:00,78.5,72.5,29.91,North,-999,0.0,0.0,82,0.00,,,-99.99,315,WeatherLink 5.4,2013-01-03 19:04:00,
2013-01-03 15:05:00,78.5,72.5,29.91,North,-999,0.0,0.0,82,0.00,,,-99.99,157,WeatherLink 5.4,2013-01-03 19:05:00,
2013-01-03 15:06:00,78.5,72.5,29.91,North,-999,0.0,0.0,82,0.00,,,-99.99,111,WeatherLink 5.4,2013-01-03 19:06:00,
2013-01-03 15:07:00,78.5,72.5,29.91,North,-999,0.0,0.0,82,0.00,,,-99.99,79,WeatherLink 5.4,2013-01-03 19:07:00,
2013-01-03 15:08:00,78.6,72.6,29.91,North,-999,0.0,0.0,82,0.00,,,-99.99,62,WeatherLink 5.4,2013-01-03 19:08:00,
2013-01-03 15:09:00,78.6,72.6,29.91,North,-999,0.0,0.0,82,0.00,,,-99.99,47,WeatherLink 5.4,2013-01-03 19:09:00,
2013-01-03 15:10:00,78.6,72.6,29.91,East,90,1.0,8.0,82,0.00,,,-99.99,39,WeatherLink 5.4,2013-01-03 19:10:00,
2013-01-03 15:11:00,78.6,72.6,29.91,ESE,112,4.0,6.0,82,0.02,,,-99.99,35,WeatherLink 5.4,2013-01-03 19:11:00,
2013-01-03 15:12:00,78.6,72.6,29.91,ESE,112,3.0,7.0,82,0.04,,,-99.99,33,WeatherLink 5.4,2013-01-03 19:12:00,
2013-01-03 15:13:00,78.6,72.6,29.91,SE,135,2.0,4.0,82,0.05,,,-99.99,30,WeatherLink 5.4,2013-01-03 19:13:00,
2013-01-03 15:14:00,78.6,72.6,29.91,SE,135,2.0,3.0,82,0.06,,,-99.99,27,WeatherLink 5.4,2013-01-03 19:14:00,
2013-01-03 15:15:00,78.5,72.5,29.91,ESE,112,4.0,7.0,82,0.06,,,-99.99,26,WeatherLink 5.4,2013-01-03 19:15:00,
2013-01-03 15:16:00,78.4,72.8,29.91,East,90,4.0,6.0,83,0.06,,,-99.99,28,WeatherLink 5.4,2013-01-03 19:16:00,
2013-01-03 15:17:00,78.3,72.7,29.91,East,90,3.0,5.0,83,0.07,,,-99.99,28,WeatherLink 5.4,2013-01-03 19:17:00,
2013-01-03 15:18:00,78.1,72.5,29.91,East,90,1.0,2.0,83,0.07,,,-99.99,30,WeatherLink 5.4,2013-01-03 19:18:00,
2013-01-03 15:19:00,78.1,72.9,29.91,North,-999,0.0,0.0,84,0.07,,,-99.99,32,WeatherLink 5.4,2013-01-03 19:19:00,
2013-01-03 15:20:00,78.1,72.9,29.91,North,-999,0.0,0.0,84,0.07,,,-99.99,30,WeatherLink 5.4,2013-01-03 19:20:00,
2013-01-03 15:21:00,77.9,72.7,29.91,North,-999,0.0,0.0,84,0.07,,,-99.99,33,WeatherLink 5.4,2013-01-03 19:21:00,
2013-01-03 15:22:00,77.9,72.7,29.91,North,-999,0.0,0.0,84,0.07,,,-99.99,39,WeatherLink 5.4,2013-01-03 19:22:00,
2013-01-03 15:23:00,77.7,72.8,29.91,North,-999,0.0,0.0,85,0.07,,,-99.99,42,WeatherLink 5.4,2013-01-03 19:23:00,
2013-01-03 15:24:00,77.7,72.8,29.91,North,-999,0.0,0.0,85,0.08,,,-99.99,50,WeatherLink 5.4,2013-01-03 19:24:00,
2013-01-03 15:25:00,77.7,72.8,29.91,North,-999,0.0,0.0,85,0.08,,,-99.99,55,WeatherLink 5.4,2013-01-03 19:25:00,
2013-01-03 15:26:00,77.7,72.8,29.91,ESE,112,2.0,8.0,85,0.08,,,-99.99,56,WeatherLink 5.4,2013-01-03 19:26:00,
2013-01-03 15:27:00,77.5,72.6,29.91,ESE,112,4.0,8.0,85,0.08,,,-99.99,58,WeatherLink 5.4,2013-01-03 19:27:00,
2013-01-03 15:28:00,77.4,72.5,29.91,North,-999,0.0,0.0,85,0.08,,,-99.99,62,WeatherLink 5.4,2013-01-03 19:28:00,
2013-01-03 15:29:00,77.2,72.3,29.91,North,-999,0.0,0.0,85,0.08,,,-99.99,66,WeatherLink 5.4,2013-01-03 19:29:00,
2013-01-03 15:30:00,77.2,72.7,29.91,North,-999,0.0,0.0,86,0.08,,,-99.99,74,WeatherLink 5.4,2013-01-03 19:30:00,
2013-01-03 15:31:00,77.2,72.7,29.91,North,-999,0.0,0.0,86,0.08,,,-99.99,77,WeatherLink 5.4,2013-01-03 19:31:00,
2013-01-03 15:32:00,77.1,72.6,29.91,North,-999,0.0,0.0,86,0.08,,,-99.99,79,WeatherLink 5.4,2013-01-03 19:32:00,
2013-01-03 15:33:00,77.0,72.5,29.91,North,-999,0.0,0.0,86,0.08,,,-99.99,79,WeatherLink 5.4,2013-01-03 19:33:00,
2013-01-03 15:34:00,77.0,72.5,29.91,North,-999,0.0,0.0,86,0.08,,,-99.99,81,WeatherLink 5.4,2013-01-03 19:34:00,
2013-01-03 15:35:00,77.0,72.5,29.91,North,-999,0.0,0.0,86,0.09,,,-99.99,95,WeatherLink 5.4,2013-01-03 19:35:00,
2013-01-03 15:36:00,77.0,72.8,29.91,North,-999,0.0,0.0,87,0.09,,,-99.99,104,WeatherLink 5.4,2013-01-03 19:36:00,
2013-01-03 15:37:00,77.0,72.5,29.91,North,-999,0.0,0.0,86,0.09,,,-99.99,109,WeatherLink 5.4,2013-01-03 19:37:00,
2013-01-03 15:38:00,77.0,72.8,29.91,North,-999,0.0,0.0,87,0.09,,,-99.99,114,WeatherLink 5.4,2013-01-03 19:38:00,
2013-01-03 15:39:00,76.9,72.7,29.91,North,-999,0.0,0.0,87,0.09,,,-99.99,118,WeatherLink 5.4,2013-01-03 19:39:00,
2013-01-03 15:40:00,76.8,72.6,29.91,North,-999,0.0,0.0,87,0.09,,,-99.99,121,WeatherLink 5.4,2013-01-03 19:40:00,
2013-01-03 15:41:00,76.8,72.6,29.91,North,-999,0.0,0.0,87,0.09,,,-99.99,134,WeatherLink 5.4,2013-01-03 19:41:00,
2013-01-03 15:42:00,76.8,72.6,29.91,North,-999,0.0,0.0,87,0.09,,,-99.99,151,WeatherLink 5.4,2013-01-03 19:42:00,
2013-01-03 15:43:00,76.8,72.6,29.91,North,-999,0.0,0.0,87,0.09,,,-99.99,171,WeatherLink 5.4,2013-01-03 19:43:00,
2013-01-03 15:44:00,76.8,72.6,29.91,North,-999,0.0,0.0,87,0.09,,,-99.99,203,WeatherLink 5.4,2013-01-03 19:44:00,
2013-01-03 15:45:00,76.8,72.6,29.91,North,-999,0.0,0.0,87,0.09,,,-99.99,236,WeatherLink 5.4,2013-01-03 19:45:00,
2013-01-03 15:46:00,76.8,72.6,29.91,North,-999,0.0,0.0,87,0.09,,,-99.99,236,WeatherLink 5.4,2013-01-03 19:46:00,
2013-01-03 15:47:00,76.8,72.6,29.91,North,-999,0.0,0.0,87,0.09,,,-99.99,236,WeatherLink 5.4,2013-01-03 19:47:00,
2013-01-03 15:48:00,76.8,73.0,29.91,North,-999,0.0,0.0,88,0.09,,,-99.99,514,WeatherLink 5.4,2013-01-03 19:48:00,
2013-01-03 15:49:00,76.8,73.0,29.91,North,-999,0.0,0.0,88,0.09,,,-99.99,567,WeatherLink 5.4,2013-01-03 19:49:00,
2013-01-03 15:50:00,76.8,73.0,29.91,North,-999,0.0,0.0,88,0.09,,,-99.99,538,WeatherLink 5.4,2013-01-03 19:50:00,
2013-01-03 15:51:00,76.8,73.0,29.91,North,-999,0.0,0.0,88,0.09,,,-99.99,538,WeatherLink 5.4,2013-01-03 19:51:00,
2013-01-03 15:52:00,77.0,73.2,29.91,North,-999,0.0,0.0,88,0.09,,,-99.99,538,WeatherLink 5.4,2013-01-03 19:52:00,
2013-01-03 15:53:00,77.0,73.2,29.91,North,-999,0.0,0.0,88,0.09,,,-99.99,570,WeatherLink 5.4,2013-01-03 19:53:00,
2013-01-03 15:54:00,77.2,73.7,29.91,North,-999,0.0,0.0,89,0.09,,,-99.99,533,WeatherLink 5.4,2013-01-03 19:54:00,
2013-01-03 15:55:00,77.4,73.6,29.91,ESE,112,2.0,6.0,88,0.09,,,-99.99,533,WeatherLink 5.4,2013-01-03 19:55:00,
2013-01-03 15:56:00,77.4,73.6,29.91,ESE,112,1.0,5.0,88,0.09,,,-99.99,310,WeatherLink 5.4,2013-01-03 19:56:00,
2013-01-03 15:57:00,77.4,73.6,29.91,ESE,112,0.0,3.0,88,0.09,,,-99.99,310,WeatherLink 5.4,2013-01-03 19:57:00,
2013-01-03 15:58:00,77.4,73.2,29.91,East,90,5.0,8.0,87,0.09,,,-99.99,310,WeatherLink 5.4,2013-01-03 19:58:00,
2013-01-03 15:59:00,77.4,73.2,29.91,East,90,2.0,7.0,87,0.09,,,-99.99,301,WeatherLink 5.4,2013-01-03 19:59:00,
2013-01-03 16:00:00,77.4,73.2,29.91,East,90,4.0,8.0,87,0.11,,,-99.99,264,WeatherLink 5.4,2013-01-03 20:00:00,
2013-01-03 16:01:00,77.4,73.2,29.91,East,90,2.0,5.0,87,0.13,,,-99.99,216,WeatherLink 5.4,2013-01-03 20:01:00,
2013-01-03 16:02:00,77.4,73.2,29.91,North,-999,0.0,0.0,87,0.13,,,-99.99,216,WeatherLink 5.4,2013-01-03 20:02:00,
2013-01-03 16:03:00,77.4,73.6,29.91,North,-999,0.0,0.0,88,0.13,,,-99.99,109,WeatherLink 5.4,2013-01-03 20:03:00,
2013-01-03 16:04:00,77.4,73.6,29.91,North,-999,0.0,0.0,88,0.13,,,-99.99,95,WeatherLink 5.4,2013-01-03 20:04:00,
2013-01-03 16:05:00,77.5,73.7,29.91,North,-999,0.0,0.0,88,0.13,,,-99.99,84,WeatherLink 5.4,2013-01-03 20:05:00,
2013-01-03 16:06:00,77.6,73.8,29.91,North,-999,0.0,0.0,88,0.13,,,-99.99,97,WeatherLink 5.4,2013-01-03 20:06:00,
2013-01-03 16:07:00,77.4,73.2,29.91,North,-999,0.0,0.0,87,0.13,,,-99.99,128,WeatherLink 5.4,2013-01-03 20:07:00,
2013-01-03 16:08:00,77.4,73.2,29.91,North,-999,0.0,0.0,87,0.13,,,-99.99,155,WeatherLink 5.4,2013-01-03 20:08:00,
2013-01-03 16:09:00,77.4,73.2,29.91,North,-999,0.0,0.0,87,0.13,,,-99.99,163,WeatherLink 5.4,2013-01-03 20:09:00,
2013-01-03 16:10:00,77.4,73.2,29.91,North,-999,0.0,0.0,87,0.13,,,-99.99,169,WeatherLink 5.4,2013-01-03 20:10:00,
2013-01-03 16:11:00,77.4,73.6,29.91,North,-999,0.0,0.0,88,0.11,,,-99.99,171,WeatherLink 5.4,2013-01-03 20:11:00,
2013-01-03 16:12:00,77.4,73.6,29.91,North,-999,0.0,0.0,88,0.09,,,-99.99,188,WeatherLink 5.4,2013-01-03 20:12:00,
2013-01-03 16:13:00,77.4,73.6,29.91,North,-999,0.0,0.0,88,0.08,,,-99.99,148,WeatherLink 5.4,2013-01-03 20:13:00,
2013-01-03 16:14:00,77.4,73.6,29.91,North,-999,0.0,0.0,88,0.07,,,-99.99,125,WeatherLink 5.4,2013-01-03 20:14:00,
2013-01-03 16:15:00,77.4,73.6,29.91,North,-999,0.0,0.0,88,0.07,,,-99.99,139,WeatherLink 5.4,2013-01-03 20:15:00,
2013-01-03 16:16:00,77.4,73.2,29.91,North,-999,0.0,0.0,87,0.07,,,-99.99,151,WeatherLink 5.4,2013-01-03 20:16:00,
2013-01-03 16:17:00,77.4,73.2,29.91,North,-999,0.0,0.0,87,0.06,,,-99.99,155,WeatherLink 5.4,2013-01-03 20:17:00,
2013-01-03 16:18:00,77.4,73.6,29.91,North,-999,0.0,0.0,88,0.06,,,-99.99,155,WeatherLink 5.4,2013-01-03 20:18:00,
2013-01-03 16:19:00,77.4,73.6,29.91,North,-999,0.0,0.0,88,0.06,,,-99.99,148,WeatherLink 5.4,2013-01-03 20:19:00,
2013-01-03 16:20:00,77.3,73.5,29.91,North,-999,0.0,0.0,88,0.06,,,-99.99,143,WeatherLink 5.4,2013-01-03 20:20:00,
2013-01-03 16:21:00,77.2,73.0,29.91,North,-999,0.0,0.0,87,0.06,,,-99.99,134,WeatherLink 5.4,2013-01-03 20:21:00,
2013-01-03 16:22:00,77.2,73.0,29.91,North,-999,0.0,0.0,87,0.06,,,-99.99,127,WeatherLink 5.4,2013-01-03 20:22:00,
2013-01-03 16:23:00,77.2,73.4,29.91,North,-999,0.0,0.0,88,0.06,,,-99.99,123,WeatherLink 5.4,2013-01-03 20:23:00,
2013-01-03 16:24:00,77.2,73.4,29.91,North,-999,0.0,0.0,88,0.05,,,-99.99,118,WeatherLink 5.4,2013-01-03 20:24:00,
2013-01-03 16:25:00,77.2,73.4,29.91,North,-999,0.0,0.0,88,0.05,,,-99.99,111,WeatherLink 5.4,2013-01-03 20:25:00,
2013-01-03 16:26:00,77.3,73.5,29.91,North,-999,0.0,0.0,88,0.05,,,-99.99,99,WeatherLink 5.4,2013-01-03 20:26:00,
2013-01-03 16:27:00,77.4,73.6,29.91,North,-999,0.0,0.0,88,0.05,,,-99.99,90,WeatherLink 5.4,2013-01-03 20:27:00,
2013-01-03 16:28:00,77.3,73.1,29.91,North,-999,0.0,0.0,87,0.05,,,-99.99,70,WeatherLink 5.4,2013-01-03 20:28:00,
2013-01-03 16:29:00,77.2,73.4,29.91,North,-999,0.0,0.0,88,0.05,,,-99.99,58,WeatherLink 5.4,2013-01-03 20:29:00,
2013-01-03 16:30:00,77.2,73.0,29.91,North,-999,0.0,0.0,87,0.05,,,-99.99,51,WeatherLink 5.4,2013-01-03 20:30:00,
2013-01-03 16:31:00,77.2,73.0,29.91,North,-999,0.0,0.0,87,0.05,,,-99.99,49,WeatherLink 5.4,2013-01-03 20:31:00,
2013-01-03 16:32:00,77.0,72.5,29.91,North,-999,0.0,0.0,86,0.05,,,-99.99,46,WeatherLink 5.4,2013-01-03 20:32:00,
2013-01-03 16:33:00,77.0,72.5,29.91,North,-999,0.0,0.0,86,0.05,,,-99.99,42,WeatherLink 5.4,2013-01-03 20:33:00,
2013-01-03 16:34:00,77.0,72.5,29.91,North,-999,0.0,0.0,86,0.05,,,-99.99,37,WeatherLink 5.4,2013-01-03 20:34:00,
2013-01-03 16:35:00,77.0,72.5,29.91,North,-999,0.0,0.0,86,0.04,,,-99.99,30,WeatherLink 5.4,2013-01-03 20:35:00,
2013-01-03 16:36:00,77.0,72.5,29.91,North,-999,0.0,0.0,86,0.04,,,-99.99,28,WeatherLink 5.4,2013-01-03 20:36:00,
2013-01-03 16:37:00,77.0,72.5,29.91,North,-999,0.0,0.0,86,0.04,,,-99.99,28,WeatherLink 5.4,2013-01-03 20:37:00,
2013-01-03 16:38:00,77.1,72.2,29.91,ESE,112,3.0,7.0,85,0.04,,,-99.99,26,WeatherLink 5.4,2013-01-03 20:38:00,
2013-01-03 16:39:00,77.0,72.5,29.91,ESE,112,0.0,2.0,86,0.04,,,-99.99,27,WeatherLink 5.4,2013-01-03 20:39:00,
2013-01-03 16:40:00,77.0,72.1,29.91,East,90,1.0,8.0,85,0.04,,,-99.99,28,WeatherLink 5.4,2013-01-03 20:40:00,
2013-01-03 16:41:00,77.0,72.1,29.91,East,90,2.0,7.0,85,0.04,,,-99.99,28,WeatherLink 5.4,2013-01-03 20:41:00,
2013-01-03 16:42:00,77.0,71.8,29.91,East,90,3.0,7.0,84,0.04,,,-99.99,30,WeatherLink 5.4,2013-01-03 20:42:00,
2013-01-03 16:43:00,77.0,71.8,29.91,ESE,112,4.0,7.0,84,0.04,,,-99.99,33,WeatherLink 5.4,2013-01-03 20:43:00,
2013-01-03 16:44:00,77.0,71.8,29.91,East,90,2.0,5.0,84,0.04,,,-99.99,36,WeatherLink 5.4,2013-01-03 20:44:00,
2013-01-03 16:45:00,77.0,71.8,29.92,ESE,112,4.0,7.0,84,0.04,,,-99.99,40,WeatherLink 5.4,2013-01-03 20:45:00,
2013-01-03 16:46:00,77.0,71.4,29.92,East,90,4.0,8.0,83,0.04,,,-99.99,44,WeatherLink 5.4,2013-01-03 20:46:00,
2013-01-03 16:47:00,77.0,71.4,29.92,SE,135,3.0,6.0,83,0.04,,,-99.99,46,WeatherLink 5.4,2013-01-03 20:47:00,
2013-01-03 16:48:00,77.1,71.5,29.92,ESE,112,3.0,6.0,83,0.04,,,-99.99,49,WeatherLink 5.4,2013-01-03 20:48:00,
2013-01-03 16:49:00,77.2,71.3,29.92,SE,135,3.0,5.0,82,0.04,,,-99.99,57,WeatherLink 5.4,2013-01-03 20:49:00,
2013-01-03 16:50:00,77.2,71.3,29.92,ESE,112,2.0,5.0,82,0.04,,,-99.99,62,WeatherLink 5.4,2013-01-03 20:50:00,
2013-01-03 16:51:00,77.2,71.3,29.92,North,-999,0.0,0.0,82,0.04,,,-99.99,65,WeatherLink 5.4,2013-01-03 20:51:00,
2013-01-03 16:52:00,77.3,71.4,29.92,North,-999,0.0,0.0,82,0.04,,,-99.99,69,WeatherLink 5.4,2013-01-03 20:52:00,
2013-01-03 16:53:00,77.4,71.5,29.92,ESE,112,3.0,6.0,82,0.04,,,-99.99,70,WeatherLink 5.4,2013-01-03 20:53:00,
2013-01-03 16:54:00,77.4,71.5,29.92,ESE,112,3.0,6.0,82,0.04,,,-99.99,74,WeatherLink 5.4,2013-01-03 20:54:00,
2013-01-03 16:55:00,77.4,71.5,29.92,ESE,112,5.0,7.0,82,0.04,,,-99.99,107,WeatherLink 5.4,2013-01-03 20:55:00,
2013-01-03 16:56:00,77.4,71.1,29.92,East,90,6.0,8.0,81,0.04,,,-99.99,127,WeatherLink 5.4,2013-01-03 20:56:00,
2013-01-03 16:57:00,77.4,71.1,29.92,East,90,3.0,6.0,81,0.04,,,-99.99,155,WeatherLink 5.4,2013-01-03 20:57:00,
2013-01-03 16:58:00,77.4,70.7,29.92,ESE,112,6.0,8.0,80,0.04,,,-99.99,153,WeatherLink 5.4,2013-01-03 20:58:00,
2013-01-03 16:59:00,77.4,70.7,29.92,East,90,3.0,8.0,80,0.04,,,-99.99,72,WeatherLink 5.4,2013-01-03 20:59:00,
2013-01-03 17:00:00,77.4,70.7,29.92,ESE,112,2.0,7.0,80,0.02,,,-99.99,67,WeatherLink 5.4,2013-01-03 21:00:00,
2013-01-03 17:01:00,77.4,70.7,29.92,ESE,112,7.0,10.0,80,0.00,,,-99.99,69,WeatherLink 5.4,2013-01-03 21:01:00,
2013-01-03 17:02:00,77.4,70.4,29.92,ESE,112,6.0,8.0,79,0.00,,,-99.99,65,WeatherLink 5.4,2013-01-03 21:02:00,
2013-01-03 17:03:00,77.6,70.6,29.92,ESE,112,3.0,7.0,79,0.00,,,-99.99,60,WeatherLink 5.4,2013-01-03 21:03:00,
2013-01-03 17:04:00,77.6,70.6,29.92,ESE,112,2.0,5.0,79,0.00,,,-99.99,56,WeatherLink 5.4,2013-01-03 21:04:00,
2013-01-03 17:05:00,77.6,70.6,29.92,North,-999,0.0,0.0,79,0.00,,,-99.99,55,WeatherLink 5.4,2013-01-03 21:05:00,
2013-01-03 17:06:00,77.6,70.6,29.92,North,-999,0.0,0.0,79,0.00,,,-99.99,58,WeatherLink 5.4,2013-01-03 21:06:00,
2013-01-03 17:07:00,77.6,70.6,29.92,North,-999,0.0,0.0,79,0.00,,,-99.99,67,WeatherLink 5.4,2013-01-03 21:07:00,
2013-01-03 17:08:00,77.7,70.7,29.92,ESE,112,4.0,8.0,79,0.00,,,-99.99,46,WeatherLink 5.4,2013-01-03 21:08:00,
2013-01-03 17:09:00,77.7,70.7,29.92,North,-999,0.0,0.0,79,0.00,,,-99.99,51,WeatherLink 5.4,2013-01-03 21:09:00,
2013-01-03 17:10:00,77.7,70.7,29.92,ESE,112,5.0,9.0,79,0.00,,,-99.99,55,WeatherLink 5.4,2013-01-03 21:10:00,
2013-01-03 17:11:00,77.7,70.3,29.92,SE,135,2.0,6.0,78,0.00,,,-99.99,137,WeatherLink 5.4,2013-01-03 21:11:00,
2013-01-03 17:12:00,77.7,70.3,29.92,ESE,112,3.0,8.0,78,0.00,,,-99.99,146,WeatherLink 5.4,2013-01-03 21:12:00,
2013-01-03 17:13:00,77.7,70.3,29.92,ESE,112,1.0,6.0,78,0.00,,,-99.99,153,WeatherLink 5.4,2013-01-03 21:13:00,
2013-01-03 17:14:00,77.7,70.3,29.92,SE,135,0.0,1.0,78,0.00,,,-99.99,161,WeatherLink 5.4,2013-01-03 21:14:00,
2013-01-03 17:15:00,77.7,70.3,29.93,North,-999,0.0,0.0,78,0.00,,,-99.99,160,WeatherLink 5.4,2013-01-03 21:15:00,
2013-01-03 17:16:00,77.9,70.5,29.93,North,-999,0.0,0.0,78,0.00,,,-99.99,153,WeatherLink 5.4,2013-01-03 21:16:00,
2013-01-03 17:17:00,77.9,70.5,29.93,North,-999,0.0,0.0,78,0.00,,,-99.99,144,WeatherLink 5.4,2013-01-03 21:17:00,
2013-01-03 17:18:00,77.9,70.5,29.93,North,-999,0.0,0.0,78,0.00,,,-99.99,134,WeatherLink 5.4,2013-01-03 21:18:00,
2013-01-03 17:19:00,77.9,70.5,29.93,North,-999,0.0,0.0,78,0.00,,,-99.99,123,WeatherLink 5.4,2013-01-03 21:19:00,
2013-01-03 17:20:00,77.9,70.5,29.93,North,-999,0.0,0.0,78,0.00,,,-99.99,114,WeatherLink 5.4,2013-01-03 21:20:00,
2013-01-03 17:21:00,78.1,70.7,29.93,North,-999,0.0,0.0,78,0.00,,,-99.99,113,WeatherLink 5.4,2013-01-03 21:21:00,
2013-01-03 17:22:00,78.1,70.7,29.93,North,-999,0.0,0.0,78,0.00,,,-99.99,113,WeatherLink 5.4,2013-01-03 21:22:00,
2013-01-03 17:23:00,78.1,70.7,29.93,North,-999,0.0,0.0,78,0.00,,,-99.99,111,WeatherLink 5.4,2013-01-03 21:23:00,
2013-01-03 17:24:00,78.1,70.3,29.93,North,-999,0.0,0.0,77,0.00,,,-99.99,109,WeatherLink 5.4,2013-01-03 21:24:00,
2013-01-03 17:25:00,78.1,70.7,29.93,North,-999,0.0,0.0,78,0.00,,,-99.99,77,WeatherLink 5.4,2013-01-03 21:25:00,
2013-01-03 17:26:00,78.1,70.7,29.93,North,-999,0.0,0.0,78,0.00,,,-99.99,65,WeatherLink 5.4,2013-01-03 21:26:00,
2013-01-03 17:27:00,78.1,70.3,29.93,North,-999,0.0,0.0,77,0.00,,,-99.99,63,WeatherLink 5.4,2013-01-03 21:27:00,
2013-01-03 17:28:00,78.1,70.3,29.93,North,-999,0.0,0.0,77,0.00,,,-99.99,62,WeatherLink 5.4,2013-01-03 21:28:00,
2013-01-03 17:29:00,78.1,70.3,29.93,North,-999,0.0,0.0,77,0.00,,,-99.99,61,WeatherLink 5.4,2013-01-03 21:29:00,
2013-01-03 17:30:00,78.3,70.9,29.93,North,-999,0.0,0.0,78,0.00,,,-99.99,60,WeatherLink 5.4,2013-01-03 21:30:00,
2013-01-03 17:31:00,78.3,70.9,29.93,North,-999,0.0,0.0,78,0.00,,,-99.99,58,WeatherLink 5.4,2013-01-03 21:31:00,
2013-01-03 17:32:00,78.3,70.9,29.93,North,-999,0.0,0.0,78,0.00,,,-99.99,53,WeatherLink 5.4,2013-01-03 21:32:00,
2013-01-03 17:33:00,78.3,70.9,29.93,North,-999,0.0,0.0,78,0.00,,,-99.99,49,WeatherLink 5.4,2013-01-03 21:33:00,
2013-01-03 17:34:00,78.3,70.9,29.93,North,-999,0.0,0.0,78,0.00,,,-99.99,45,WeatherLink 5.4,2013-01-03 21:34:00,
2013-01-03 17:35:00,78.3,70.9,29.93,North,-999,0.0,0.0,78,0.00,,,-99.99,44,WeatherLink 5.4,2013-01-03 21:35:00,
2013-01-03 17:36:00,78.3,70.9,29.93,North,-999,0.0,0.0,78,0.00,,,-99.99,44,WeatherLink 5.4,2013-01-03 21:36:00,
2013-01-03 17:37:00,78.3,70.9,29.93,North,-999,0.0,0.0,78,0.00,,,-99.99,33,WeatherLink 5.4,2013-01-03 21:37:00,
2013-01-03 17:38:00,78.3,71.2,29.93,North,-999,0.0,0.0,79,0.00,,,-99.99,28,WeatherLink 5.4,2013-01-03 21:38:00,
2013-01-03 17:39:00,78.3,71.2,29.93,North,-999,0.0,0.0,79,0.00,,,-99.99,26,WeatherLink 5.4,2013-01-03 21:39:00,
2013-01-03 17:40:00,78.3,71.2,29.93,North,-999,0.0,0.0,79,0.00,,,-99.99,23,WeatherLink 5.4,2013-01-03 21:40:00,
2013-01-03 17:41:00,78.3,71.2,29.93,North,-999,0.0,0.0,79,0.00,,,-99.99,21,WeatherLink 5.4,2013-01-03 21:41:00,
2013-01-03 17:42:00,78.3,71.2,29.93,North,-999,0.0,0.0,79,0.00,,,-99.99,19,WeatherLink 5.4,2013-01-03 21:42:00,
2013-01-03 17:43:00,78.3,71.2,29.93,North,-999,0.0,0.0,79,0.00,,,-99.99,18,WeatherLink 5.4,2013-01-03 21:43:00,
2013-01-03 17:44:00,78.3,70.9,29.93,North,-999,0.0,0.0,78,0.00,,,-99.99,18,WeatherLink 5.4,2013-01-03 21:44:00,
2013-01-03 17:45:00,78.3,71.2,29.93,North,-999,0.0,0.0,79,0.00,,,-99.99,16,WeatherLink 5.4,2013-01-03 21:45:00,
2013-01-03 17:46:00,78.2,70.8,29.93,North,-999,0.0,0.0,78,0.00,,,-99.99,16,WeatherLink 5.4,2013-01-03 21:46:00,
2013-01-03 17:47:00,78.1,71.1,29.93,North,-999,0.0,0.0,79,0.00,,,-99.99,14,WeatherLink 5.4,2013-01-03 21:47:00,
2013-01-03 17:48:00,78.1,71.1,29.93,North,-999,0.0,0.0,79,0.00,,,-99.99,14,WeatherLink 5.4,2013-01-03 21:48:00,
2013-01-03 17:49:00,78.1,71.1,29.93,North,-999,0.0,0.0,79,0.00,,,-99.99,13,WeatherLink 5.4,2013-01-03 21:49:00,
2013-01-03 17:50:00,78.1,71.1,29.93,North,-999,0.0,0.0,79,0.00,,,-99.99,12,WeatherLink 5.4,2013-01-03 21:50:00,
2013-01-03 17:51:00,78.1,71.1,29.93,North,-999,0.0,0.0,79,0.00,,,-99.99,11,WeatherLink 5.4,2013-01-03 21:51:00,
2013-01-03 17:52:00,78.1,71.1,29.93,North,-999,0.0,0.0,79,0.00,,,-99.99,11,WeatherLink 5.4,2013-01-03 21:52:00,
2013-01-03 17:53:00,78.1,71.4,29.93,North,-999,0.0,0.0,80,0.00,,,-99.99,9,WeatherLink 5.4,2013-01-03 21:53:00,
2013-01-03 17:54:00,78.1,71.1,29.93,North,-999,0.0,0.0,79,0.00,,,-99.99,9,WeatherLink 5.4,2013-01-03 21:54:00,
2013-01-03 17:55:00,78.1,71.4,29.93,North,-999,0.0,0.0,80,0.00,,,-99.99,7,WeatherLink 5.4,2013-01-03 21:55:00,
2013-01-03 17:56:00,78.1,71.1,29.93,North,-999,0.0,0.0,79,0.00,,,-99.99,7,WeatherLink 5.4,2013-01-03 21:56:00,
2013-01-03 17:57:00,78.1,71.1,29.93,North,-999,0.0,0.0,79,0.00,,,-99.99,7,WeatherLink 5.4,2013-01-03 21:57:00,
2013-01-03 17:58:00,78.1,71.4,29.93,North,-999,0.0,0.0,80,0.00,,,-99.99,7,WeatherLink 5.4,2013-01-03 21:58:00,
2013-01-03 17:59:00,78.1,71.1,29.93,North,-999,0.0,0.0,79,0.00,,,-99.99,5,WeatherLink 5.4,2013-01-03 21:59:00,
2013-01-03 18:00:00,77.9,70.5,29.94,North,-999,0.0,0.0,78,0.00,,,-99.99,5,WeatherLink 5.4,2013-01-03 22:00:00,
2013-01-03 18:01:00,77.9,70.5,29.94,North,-999,0.0,0.0,78,0.00,,,-99.99,5,WeatherLink 5.4,2013-01-03 22:01:00,
2013-01-03 18:02:00,77.9,70.5,29.94,North,-999,0.0,0.0,78,0.00,,,-99.99,5,WeatherLink 5.4,2013-01-03 22:02:00,
2013-01-03 18:03:00,77.9,70.5,29.94,North,-999,0.0,0.0,78,0.00,,,-99.99,5,WeatherLink 5.4,2013-01-03 22:03:00,
2013-01-03 18:04:00,77.7,70.3,29.94,North,-999,0.0,0.0,78,0.00,,,-99.99,3,WeatherLink 5.4,2013-01-03 22:04:00,
2013-01-03 18:05:00,77.7,69.9,29.94,North,-999,0.0,0.0,77,0.00,,,-99.99,0,WeatherLink 5.4,2013-01-03 22:05:00,
2013-01-03 18:06:00,77.7,69.9,29.94,North,-999,0.0,0.0,77,0.00,,,-99.99,0,WeatherLink 5.4,2013-01-03 22:06:00,
2013-01-03 18:07:00,77.7,69.9,29.94,North,-999,0.0,0.0,77,0.00,,,-99.99,0,WeatherLink 5.4,2013-01-03 22:07:00,
2013-01-03 18:08:00,77.7,70.3,29.94,North,-999,0.0,0.0,78,0.00,,,-99.99,0,WeatherLink 5.4,2013-01-03 22:08:00,
2013-01-03 18:09:00,77.7,69.9,29.94,North,-999,0.0,0.0,77,0.00,,,-99.99,0,WeatherLink 5.4,2013-01-03 22:09:00,
2013-01-03 18:10:00,77.7,69.9,29.94,North,-999,0.0,0.0,77,0.00,,,-99.99,0,WeatherLink 5.4,2013-01-03 22:10:00,
2013-01-03 18:11:00,77.7,69.9,29.94,North,-999,0.0,0.0,77,0.00,,,-99.99,0,WeatherLink 5.4,2013-01-03 22:11:00,
2013-01-03 18:12:00,77.7,69.9,29.94,North,-999,0.0,0.0,77,0.00,,,-99.99,0,WeatherLink 5.4,2013-01-03 22:12:00,
2013-01-03 18:13:00,77.7,69.9,29.94,North,-999,0.0,0.0,77,0.00,,,-99.99,0,WeatherLink 5.4,2013-01-03 22:13:00,
2013-01-03 18:14:00,77.7,69.9,29.94,North,-999,0.0,0.0,77,0.00,,,-99.99,0,WeatherLink 5.4,2013-01-03 22:14:00,
2013-01-03 18:15:00,77.7,69.9,29.94,North,-999,0.0,0.0,77,0.00,,,-99.99,0,WeatherLink 5.4,2013-01-03 22:15:00,
2013-01-03 18:16:00,77.7,69.9,29.94,North,-999,0.0,0.0,77,0.00,,,-99.99,0,WeatherLink 5.4,2013-01-03 22:16:00,
2013-01-03 18:17:00,77.7,69.9,29.94,North,-999,0.0,0.0,77,0.00,,,-99.99,0,WeatherLink 5.4,2013-01-03 22:17:00,
2013-01-03 18:18:00,77.7,70.3,29.94,North,-999,0.0,0.0,78,0.00,,,-99.99,0,WeatherLink 5.4,2013-01-03 22:18:00,
2013-01-03 18:19:00,77.7,70.3,29.94,North,-999,0.0,0.0,78,0.00,,,-99.99,0,WeatherLink 5.4,2013-01-03 22:19:00,
2013-01-03 18:20:00,77.7,70.3,29.94,North,-999,0.0,0.0,78,0.00,,,-99.99,0,WeatherLink 5.4,2013-01-03 22:20:00,
2013-01-03 18:21:00,77.7,70.3,29.94,North,-999,0.0,0.0,78,0.00,,,-99.99,0,WeatherLink 5.4,2013-01-03 22:21:00,
2013-01-03 18:22:00,77.7,70.3,29.94,North,-999,0.0,0.0,78,0.00,,,-99.99,0,WeatherLink 5.4,2013-01-03 22:22:00,
2013-01-03 18:23:00,77.7,70.3,29.94,North,-999,0.0,0.0,78,0.00,,,-99.99,0,WeatherLink 5.4,2013-01-03 22:23:00,
2013-01-03 18:24:00,77.7,70.3,29.94,North,-999,0.0,0.0,78,0.00,,,-99.99,0,WeatherLink 5.4,2013-01-03 22:24:00,
2013-01-03 18:25:00,77.7,70.3,29.94,North,-999,0.0,0.0,78,0.00,,,-99.99,0,WeatherLink 5.4,2013-01-03 22:25:00,
2013-01-03 18:26:00,77.7,70.3,29.94,North,-999,0.0,0.0,78,0.00,,,-99.99,0,WeatherLink 5.4,2013-01-03 22:26:00,
2013-01-03 18:27:00,77.7,70.3,29.94,North,-999,0.0,0.0,78,0.00,,,-99.99,0,WeatherLink 5.4,2013-01-03 22:27:00,
2013-01-03 18:28:00,77.7,70.3,29.94,North,-999,0.0,0.0,78,0.00,,,-99.99,0,WeatherLink 5.4,2013-01-03 22:28:00,
2013-01-03 18:29:00,77.6,70.2,29.94,North,-999,0.0,0.0,78,0.00,,,-99.99,0,WeatherLink 5.4,2013-01-03 22:29:00,
2013-01-03 18:30:00,77.6,70.2,29.94,North,-999,0.0,0.0,78,0.00,,,-99.99,0,WeatherLink 5.4,2013-01-03 22:30:00,
2013-01-03 18:31:00,77.6,70.2,29.94,North,-999,0.0,0.0,78,0.00,,,-99.99,0,WeatherLink 5.4,2013-01-03 22:31:00,
2013-01-03 18:32:00,77.6,70.2,29.94,North,-999,0.0,0.0,78,0.00,,,-99.99,0,WeatherLink 5.4,2013-01-03 22:32:00,
2013-01-03 18:33:00,77.6,70.2,29.94,North,-999,0.0,0.0,78,0.00,,,-99.99,0,WeatherLink 5.4,2013-01-03 22:33:00,
2013-01-03 18:34:00,77.6,69.8,29.94,North,-999,0.0,0.0,77,0.00,,,-99.99,0,WeatherLink 5.4,2013-01-03 22:34:00,
2013-01-03 18:35:00,77.6,70.2,29.94,North,-999,0.0,0.0,78,0.00,,,-99.99,0,WeatherLink 5.4,2013-01-03 22:35:00,
2013-01-03 18:36:00,77.6,70.2,29.94,North,-999,0.0,0.0,78,0.00,,,-99.99,0,WeatherLink 5.4,2013-01-03 22:36:00,
2013-01-03 18:37:00,77.6,70.2,29.94,North,-999,0.0,0.0,78,0.00,,,-99.99,0,WeatherLink 5.4,2013-01-03 22:37:00,
2013-01-03 18:38:00,77.6,70.2,29.94,North,-999,0.0,0.0,78,0.00,,,-99.99,0,WeatherLink 5.4,2013-01-03 22:38:00,
2013-01-03 18:39:00,77.6,70.2,29.94,North,-999,0.0,0.0,78,0.00,,,-99.99,0,WeatherLink 5.4,2013-01-03 22:39:00,
2013-01-03 18:40:00,77.6,69.8,29.94,North,-999,0.0,0.0,77,0.00,,,-99.99,0,WeatherLink 5.4,2013-01-03 22:40:00,
2013-01-03 18:41:00,77.6,69.8,29.94,North,-999,0.0,0.0,77,0.00,,,-99.99,0,WeatherLink 5.4,2013-01-03 22:41:00,
2013-01-03 18:42:00,77.6,69.8,29.94,North,-999,0.0,0.0,77,0.00,,,-99.99,0,WeatherLink 5.4,2013-01-03 22:42:00,
2013-01-03 18:43:00,77.6,70.2,29.94,North,-999,0.0,0.0,78,0.00,,,-99.99,0,WeatherLink 5.4,2013-01-03 22:43:00,
2013-01-03 18:44:00,77.6,70.2,29.94,North,-999,0.0,0.0,78,0.00,,,-99.99,0,WeatherLink 5.4,2013-01-03 22:44:00,
2013-01-03 18:45:00,77.6,70.2,29.95,East,90,3.0,7.0,78,0.00,,,-99.99,0,WeatherLink 5.4,2013-01-03 22:45:00,
2013-01-03 18:46:00,77.4,69.6,29.95,ESE,112,4.0,7.0,77,0.00,,,-99.99,0,WeatherLink 5.4,2013-01-03 22:46:00,
2013-01-03 18:47:00,77.4,69.6,29.95,North,-999,0.0,0.0,77,0.00,,,-99.99,0,WeatherLink 5.4,2013-01-03 22:47:00,
2013-01-03 18:48:00,77.4,70.0,29.95,North,-999,0.0,0.0,78,0.00,,,-99.99,0,WeatherLink 5.4,2013-01-03 22:48:00,
2013-01-03 18:49:00,77.4,70.0,29.95,North,-999,0.0,0.0,78,0.00,,,-99.99,0,WeatherLink 5.4,2013-01-03 22:49:00,
2013-01-03 18:50:00,77.4,70.0,29.95,North,-999,0.0,0.0,78,0.00,,,-99.99,0,WeatherLink 5.4,2013-01-03 22:50:00,
2013-01-03 18:51:00,77.4,70.0,29.95,North,-999,0.0,0.0,78,0.00,,,-99.99,0,WeatherLink 5.4,2013-01-03 22:51:00,
2013-01-03 18:52:00,77.4,70.0,29.95,North,-999,0.0,0.0,78,0.00,,,-99.99,0,WeatherLink 5.4,2013-01-03 22:52:00,
2013-01-03 18:53:00,77.4,70.0,29.95,North,-999,0.0,0.0,78,0.00,,,-99.99,0,WeatherLink 5.4,2013-01-03 22:53:00,
2013-01-03 18:54:00,77.4,70.0,29.95,North,-999,0.0,0.0,78,0.00,,,-99.99,0,WeatherLink 5.4,2013-01-03 22:54:00,
2013-01-03 18:55:00,77.4,70.0,29.95,North,-999,0.0,0.0,78,0.00,,,-99.99,0,WeatherLink 5.4,2013-01-03 22:55:00,
2013-01-03 18:56:00,77.4,70.0,29.95,North,-999,0.0,0.0,78,0.00,,,-99.99,0,WeatherLink 5.4,2013-01-03 22:56:00,
2013-01-03 18:57:00,77.4,70.0,29.95,North,-999,0.0,0.0,78,0.00,,,-99.99,0,WeatherLink 5.4,2013-01-03 22:57:00,
2013-01-03 18:58:00,77.4,70.0,29.95,North,-999,0.0,0.0,78,0.00,,,-99.99,0,WeatherLink 5.4,2013-01-03 22:58:00,
2013-01-03 18:59:00,77.4,70.0,29.95,North,-999,0.0,0.0,78,0.00,,,-99.99,0,WeatherLink 5.4,2013-01-03 22:59:00,
2013-01-03 19:00:00,77.4,70.0,29.95,North,-999,0.0,0.0,78,0.00,,,-99.99,0,WeatherLink 5.4,2013-01-03 23:00:00,
2013-01-03 19:01:00,77.2,69.8,29.95,North,-999,0.0,0.0,78,0.00,,,-99.99,0,WeatherLink 5.4,2013-01-03 23:01:00,
2013-01-03 19:02:00,77.2,69.8,29.95,North,-999,0.0,0.0,78,0.00,,,-99.99,0,WeatherLink 5.4,2013-01-03 23:02:00,
2013-01-03 19:03:00,77.2,69.8,29.95,North,-999,0.0,0.0,78,0.00,,,-99.99,0,WeatherLink 5.4,2013-01-03 23:03:00,
2013-01-03 19:04:00,77.2,69.8,29.95,North,-999,0.0,0.0,78,0.00,,,-99.99,0,WeatherLink 5.4,2013-01-03 23:04:00,
2013-01-03 19:05:00,77.2,69.8,29.95,North,-999,0.0,0.0,78,0.00,,,-99.99,0,WeatherLink 5.4,2013-01-03 23:05:00,
2013-01-03 19:06:00,77.2,69.8,29.95,North,-999,0.0,0.0,78,0.00,,,-99.99,0,WeatherLink 5.4,2013-01-03 23:06:00,
2013-01-03 19:07:00,77.2,70.2,29.95,North,-999,0.0,0.0,79,0.00,,,-99.99,0,WeatherLink 5.4,2013-01-03 23:07:00,
2013-01-03 19:08:00,77.2,70.2,29.95,North,-999,0.0,0.0,79,0.00,,,-99.99,0,WeatherLink 5.4,2013-01-03 23:08:00,
2013-01-03 19:09:00,77.2,70.2,29.95,North,-999,0.0,0.0,79,0.00,,,-99.99,0,WeatherLink 5.4,2013-01-03 23:09:00,
2013-01-03 19:10:00,77.2,70.2,29.95,North,-999,0.0,0.0,79,0.00,,,-99.99,0,WeatherLink 5.4,2013-01-03 23:10:00,
2013-01-03 19:11:00,77.2,70.2,29.95,North,-999,0.0,0.0,79,0.00,,,-99.99,0,WeatherLink 5.4,2013-01-03 23:11:00,
2013-01-03 19:12:00,77.2,70.2,29.95,North,-999,0.0,0.0,79,0.00,,,-99.99,0,WeatherLink 5.4,2013-01-03 23:12:00,
2013-01-03 19:13:00,77.2,70.5,29.95,North,-999,0.0,0.0,80,0.00,,,-99.99,0,WeatherLink 5.4,2013-01-03 23:13:00,
2013-01-03 19:14:00,77.2,70.5,29.95,North,-999,0.0,0.0,80,0.00,,,-99.99,0,WeatherLink 5.4,2013-01-03 23:14:00,
2013-01-03 19:15:00,77.2,70.5,29.96,North,-999,0.0,0.0,80,0.00,,,-99.99,0,WeatherLink 5.4,2013-01-03 23:15:00,
2013-01-03 19:16:00,77.2,70.5,29.96,North,-999,0.0,0.0,80,0.00,,,-99.99,0,WeatherLink 5.4,2013-01-03 23:16:00,
2013-01-03 19:17:00,77.2,70.5,29.96,North,-999,0.0,0.0,80,0.00,,,-99.99,0,WeatherLink 5.4,2013-01-03 23:17:00,
2013-01-03 19:18:00,77.2,70.5,29.96,North,-999,0.0,0.0,80,0.00,,,-99.99,0,WeatherLink 5.4,2013-01-03 23:18:00,
2013-01-03 19:19:00,77.2,70.5,29.96,North,-999,0.0,0.0,80,0.00,,,-99.99,0,WeatherLink 5.4,2013-01-03 23:19:00,
2013-01-03 19:20:00,77.2,70.5,29.96,North,-999,0.0,0.0,80,0.00,,,-99.99,0,WeatherLink 5.4,2013-01-03 23:20:00,
2013-01-03 19:21:00,77.2,70.5,29.96,North,-999,0.0,0.0,80,0.00,,,-99.99,0,WeatherLink 5.4,2013-01-03 23:21:00,
2013-01-03 19:22:00,77.2,70.5,29.96,North,-999,0.0,0.0,80,0.00,,,-99.99,0,WeatherLink 5.4,2013-01-03 23:22:00,
2013-01-03 19:23:00,77.2,70.5,29.96,North,-999,0.0,0.0,80,0.00,,,-99.99,0,WeatherLink 5.4,2013-01-03 23:23:00,
2013-01-03 19:24:00,77.2,70.5,29.96,North,-999,0.0,0.0,80,0.00,,,-99.99,0,WeatherLink 5.4,2013-01-03 23:24:00,
2013-01-03 19:25:00,77.2,70.5,29.96,North,-999,0.0,0.0,80,0.00,,,-99.99,0,WeatherLink 5.4,2013-01-03 23:25:00,
2013-01-03 19:26:00,77.2,70.5,29.96,North,-999,0.0,0.0,80,0.00,,,-99.99,0,WeatherLink 5.4,2013-01-03 23:26:00,
2013-01-03 19:27:00,77.2,70.5,29.96,North,-999,0.0,0.0,80,0.00,,,-99.99,0,WeatherLink 5.4,2013-01-03 23:27:00,
2013-01-03 19:28:00,77.2,70.5,29.96,North,-999,0.0,0.0,80,0.00,,,-99.99,0,WeatherLink 5.4,2013-01-03 23:28:00,
2013-01-03 19:29:00,77.2,70.5,29.96,North,-999,0.0,0.0,80,0.00,,,-99.99,0,WeatherLink 5.4,2013-01-03 23:29:00,
2013-01-03 19:30:00,77.1,70.8,29.97,North,-999,0.0,0.0,81,0.00,,,-99.99,0,WeatherLink 5.4,2013-01-03 23:30:00,
2013-01-03 19:31:00,77.0,70.4,29.97,North,-999,0.0,0.0,80,0.00,,,-99.99,0,WeatherLink 5.4,2013-01-03 23:31:00,
2013-01-03 19:32:00,77.0,70.4,29.97,North,-999,0.0,0.0,80,0.00,,,-99.99,0,WeatherLink 5.4,2013-01-03 23:32:00,
2013-01-03 19:33:00,77.0,70.4,29.97,North,-999,0.0,0.0,80,0.00,,,-99.99,0,WeatherLink 5.4,2013-01-03 23:33:00,
2013-01-03 19:34:00,77.0,70.4,29.97,North,-999,0.0,0.0,80,0.00,,,-99.99,0,WeatherLink 5.4,2013-01-03 23:34:00,
2013-01-03 19:35:00,77.0,70.7,29.97,North,-999,0.0,0.0,81,0.00,,,-99.99,0,WeatherLink 5.4,2013-01-03 23:35:00,
2013-01-03 19:36:00,76.8,70.5,29.97,North,-999,0.0,0.0,81,0.00,,,-99.99,0,WeatherLink 5.4,2013-01-03 23:36:00,
2013-01-03 19:37:00,76.8,70.5,29.97,North,-999,0.0,0.0,81,0.00,,,-99.99,0,WeatherLink 5.4,2013-01-03 23:37:00,
2013-01-03 19:38:00,76.8,70.5,29.97,North,-999,0.0,0.0,81,0.00,,,-99.99,0,WeatherLink 5.4,2013-01-03 23:38:00,
2013-01-03 19:39:00,76.8,70.5,29.97,North,-999,0.0,0.0,81,0.00,,,-99.99,0,WeatherLink 5.4,2013-01-03 23:39:00,
2013-01-03 19:40:00,76.8,70.5,29.97,North,-999,0.0,0.0,81,0.00,,,-99.99,0,WeatherLink 5.4,2013-01-03 23:40:00,
2013-01-03 19:41:00,76.8,70.5,29.97,North,-999,0.0,0.0,81,0.00,,,-99.99,0,WeatherLink 5.4,2013-01-03 23:41:00,
2013-01-03 19:42:00,76.8,70.5,29.97,North,-999,0.0,0.0,81,0.00,,,-99.99,0,WeatherLink 5.4,2013-01-03 23:42:00,
2013-01-03 19:43:00,76.8,70.5,29.97,North,-999,0.0,0.0,81,0.00,,,-99.99,0,WeatherLink 5.4,2013-01-03 23:43:00,
2013-01-03 19:44:00,76.8,70.5,29.97,North,-999,0.0,0.0,81,0.00,,,-99.99,0,WeatherLink 5.4,2013-01-03 23:44:00,
2013-01-03 19:45:00,76.8,70.5,29.97,North,-999,0.0,0.0,81,0.00,,,-99.99,0,WeatherLink 5.4,2013-01-03 23:45:00,
2013-01-03 19:46:00,76.8,70.5,29.97,North,-999,0.0,0.0,81,0.00,,,-99.99,0,WeatherLink 5.4,2013-01-03 23:46:00,
2013-01-03 19:47:00,76.8,70.9,29.97,North,-999,0.0,0.0,82,0.00,,,-99.99,0,WeatherLink 5.4,2013-01-03 23:47:00,
2013-01-03 19:48:00,76.7,70.8,29.97,North,-999,0.0,0.0,82,0.00,,,-99.99,0,WeatherLink 5.4,2013-01-03 23:48:00,
2013-01-03 19:49:00,76.7,70.8,29.97,North,-999,0.0,0.0,82,0.00,,,-99.99,0,WeatherLink 5.4,2013-01-03 23:49:00,
2013-01-03 19:50:00,76.7,70.8,29.97,North,-999,0.0,0.0,82,0.00,,,-99.99,0,WeatherLink 5.4,2013-01-03 23:50:00,
2013-01-03 19:51:00,76.7,70.8,29.97,North,-999,0.0,0.0,82,0.00,,,-99.99,0,WeatherLink 5.4,2013-01-03 23:51:00,
2013-01-03 19:52:00,76.7,70.8,29.97,North,-999,0.0,0.0,82,0.00,,,-99.99,0,WeatherLink 5.4,2013-01-03 23:52:00,
2013-01-03 19:53:00,76.7,70.8,29.97,North,-999,0.0,0.0,82,0.00,,,-99.99,0,WeatherLink 5.4,2013-01-03 23:53:00,
2013-01-03 19:54:00,76.7,70.8,29.97,North,-999,0.0,0.0,82,0.00,,,-99.99,0,WeatherLink 5.4,2013-01-03 23:54:00,
2013-01-03 19:55:00,76.7,70.8,29.97,North,-999,0.0,0.0,82,0.00,,,-99.99,0,WeatherLink 5.4,2013-01-03 23:55:00,
2013-01-03 19:56:00,76.7,70.8,29.97,North,-999,0.0,0.0,82,0.00,,,-99.99,0,WeatherLink 5.4,2013-01-03 23:56:00,
2013-01-03 19:57:00,76.7,70.8,29.97,North,-999,0.0,0.0,82,0.00,,,-99.99,0,WeatherLink 5.4,2013-01-03 23:57:00,
2013-01-03 19:58:00,76.7,70.8,29.97,North,-999,0.0,0.0,82,0.00,,,-99.99,0,WeatherLink 5.4,2013-01-03 23:58:00,
2013-01-03 19:59:00,76.7,70.8,29.97,North,-999,0.0,0.0,82,0.00,,,-99.99,0,WeatherLink 5.4,2013-01-03 23:59:00,
2013-01-03 20:00:00,76.5,70.6,29.97,North,-999,0.0,0.0,82,0.00,,,-99.99,0,WeatherLink 5.4,2013-01-04 00:00:00,
2013-01-03 20:01:00,76.5,70.6,29.97,North,-999,0.0,0.0,82,0.00,,,-99.99,0,WeatherLink 5.4,2013-01-04 00:01:00,
2013-01-03 20:02:00,76.5,70.6,29.97,North,-999,0.0,0.0,82,0.00,,,-99.99,0,WeatherLink 5.4,2013-01-04 00:02:00,
2013-01-03 20:03:00,76.5,70.6,29.97,North,-999,0.0,0.0,82,0.00,,,-99.99,0,WeatherLink 5.4,2013-01-04 00:03:00,
2013-01-03 20:04:00,76.5,70.6,29.97,North,-999,0.0,0.0,82,0.00,,,-99.99,0,WeatherLink 5.4,2013-01-04 00:04:00,
2013-01-03 20:05:00,76.5,70.6,29.97,North,-999,0.0,0.0,82,0.00,,,-99.99,0,WeatherLink 5.4,2013-01-04 00:05:00,
2013-01-03 20:06:00,76.5,70.6,29.97,North,-999,0.0,0.0,82,0.00,,,-99.99,0,WeatherLink 5.4,2013-01-04 00:06:00,
2013-01-03 20:07:00,76.5,70.6,29.97,North,-999,0.0,0.0,82,0.00,,,-99.99,0,WeatherLink 5.4,2013-01-04 00:07:00,
2013-01-03 20:08:00,76.5,70.6,29.97,North,-999,0.0,0.0,82,0.00,,,-99.99,0,WeatherLink 5.4,2013-01-04 00:08:00,
2013-01-03 20:09:00,76.5,70.6,29.97,North,-999,0.0,0.0,82,0.00,,,-99.99,0,WeatherLink 5.4,2013-01-04 00:09:00,
2013-01-03 20:10:00,76.3,70.4,29.97,North,-999,0.0,0.0,82,0.00,,,-99.99,0,WeatherLink 5.4,2013-01-04 00:10:00,
2013-01-03 20:11:00,76.3,70.8,29.97,North,-999,0.0,0.0,83,0.00,,,-99.99,0,WeatherLink 5.4,2013-01-04 00:11:00,
2013-01-03 20:12:00,76.3,70.8,29.97,North,-999,0.0,0.0,83,0.00,,,-99.99,0,WeatherLink 5.4,2013-01-04 00:12:00,
2013-01-03 20:13:00,76.3,70.8,29.97,North,-999,0.0,0.0,83,0.00,,,-99.99,0,WeatherLink 5.4,2013-01-04 00:13:00,
2013-01-03 20:14:00,76.3,70.8,29.97,North,-999,0.0,0.0,83,0.00,,,-99.99,0,WeatherLink 5.4,2013-01-04 00:14:00,
2013-01-03 20:15:00,76.3,70.8,29.97,North,-999,0.0,0.0,83,0.00,,,-99.99,0,WeatherLink 5.4,2013-01-04 00:15:00,
2013-01-03 20:16:00,76.3,70.8,29.97,North,-999,0.0,0.0,83,0.00,,,-99.99,0,WeatherLink 5.4,2013-01-04 00:16:00,
2013-01-03 20:17:00,76.3,70.8,29.97,North,-999,0.0,0.0,83,0.00,,,-99.99,0,WeatherLink 5.4,2013-01-04 00:17:00,
2013-01-03 20:18:00,76.3,71.1,29.97,North,-999,0.0,0.0,84,0.00,,,-99.99,0,WeatherLink 5.4,2013-01-04 00:18:00,
2013-01-03 20:19:00,76.2,71.0,29.97,North,-999,0.0,0.0,84,0.00,,,-99.99,0,WeatherLink 5.4,2013-01-04 00:19:00,
2013-01-03 20:20:00,76.1,70.9,29.97,North,-999,0.0,0.0,84,0.00,,,-99.99,0,WeatherLink 5.4,2013-01-04 00:20:00,
2013-01-03 20:21:00,76.1,70.9,29.97,North,-999,0.0,0.0,84,0.00,,,-99.99,0,WeatherLink 5.4,2013-01-04 00:21:00,
2013-01-03 20:22:00,76.1,70.9,29.97,North,-999,0.0,0.0,84,0.00,,,-99.99,0,WeatherLink 5.4,2013-01-04 00:22:00,
2013-01-03 20:23:00,76.1,70.9,29.97,North,-999,0.0,0.0,84,0.00,,,-99.99,0,WeatherLink 5.4,2013-01-04 00:23:00,
2013-01-03 20:24:00,76.1,70.9,29.97,North,-999,0.0,0.0,84,0.00,,,-99.99,0,WeatherLink 5.4,2013-01-04 00:24:00,
2013-01-03 20:25:00,76.0,70.8,29.97,North,-999,0.0,0.0,84,0.00,,,-99.99,0,WeatherLink 5.4,2013-01-04 00:25:00,
2013-01-03 20:26:00,76.0,70.8,29.97,North,-999,0.0,0.0,84,0.00,,,-99.99,0,WeatherLink 5.4,2013-01-04 00:26:00,
2013-01-03 20:27:00,76.0,70.8,29.97,North,-999,0.0,0.0,84,0.00,,,-99.99,0,WeatherLink 5.4,2013-01-04 00:27:00,
2013-01-03 20:28:00,76.0,70.8,29.97,North,-999,0.0,0.0,84,0.00,,,-99.99,0,WeatherLink 5.4,2013-01-04 00:28:00,
2013-01-03 20:29:00,75.9,70.7,29.97,North,-999,0.0,0.0,84,0.00,,,-99.99,0,WeatherLink 5.4,2013-01-04 00:29:00,
2013-01-03 20:30:00,75.8,70.6,29.97,North,-999,0.0,0.0,84,0.00,,,-99.99,0,WeatherLink 5.4,2013-01-04 00:30:00,
2013-01-03 20:31:00,75.8,70.6,29.97,North,-999,0.0,0.0,84,0.00,,,-99.99,0,WeatherLink 5.4,2013-01-04 00:31:00,
2013-01-03 20:32:00,75.8,71.0,29.97,North,-999,0.0,0.0,85,0.00,,,-99.99,0,WeatherLink 5.4,2013-01-04 00:32:00,
2013-01-03 20:33:00,75.8,71.0,29.97,North,-999,0.0,0.0,85,0.00,,,-99.99,0,WeatherLink 5.4,2013-01-04 00:33:00,
2013-01-03 20:34:00,75.8,71.0,29.97,North,-999,0.0,0.0,85,0.00,,,-99.99,0,WeatherLink 5.4,2013-01-04 00:34:00,
2013-01-03 20:35:00,75.8,71.0,29.97,North,-999,0.0,0.0,85,0.00,,,-99.99,0,WeatherLink 5.4,2013-01-04 00:35:00,
2013-01-03 20:36:00,75.8,71.0,29.97,North,-999,0.0,0.0,85,0.00,,,-99.99,0,WeatherLink 5.4,2013-01-04 00:36:00,
2013-01-03 20:37:00,75.6,70.8,29.97,North,-999,0.0,0.0,85,0.00,,,-99.99,0,WeatherLink 5.4,2013-01-04 00:37:00,
2013-01-03 20:38:00,75.6,70.8,29.97,North,-999,0.0,0.0,85,0.00,,,-99.99,0,WeatherLink 5.4,2013-01-04 00:38:00,
2013-01-03 20:39:00,75.6,70.8,29.97,North,-999,0.0,0.0,85,0.00,,,-99.99,0,WeatherLink 5.4,2013-01-04 00:39:00,
2013-01-03 20:40:00,75.6,70.8,29.97,North,-999,0.0,0.0,85,0.00,,,-99.99,0,WeatherLink 5.4,2013-01-04 00:40:00,
2013-01-03 20:41:00,75.6,70.8,29.97,North,-999,0.0,0.0,85,0.00,,,-99.99,0,WeatherLink 5.4,2013-01-04 00:41:00,
2013-01-03 20:42:00,75.6,70.8,29.97,North,-999,0.0,0.0,85,0.00,,,-99.99,0,WeatherLink 5.4,2013-01-04 00:42:00,
2013-01-03 20:43:00,75.5,70.7,29.97,North,-999,0.0,0.0,85,0.00,,,-99.99,0,WeatherLink 5.4,2013-01-04 00:43:00,
2013-01-03 20:44:00,75.4,70.6,29.97,North,-999,0.0,0.0,85,0.00,,,-99.99,0,WeatherLink 5.4,2013-01-04 00:44:00,
2013-01-03 20:45:00,75.4,70.6,29.98,North,-999,0.0,0.0,85,0.00,,,-99.99,0,WeatherLink 5.4,2013-01-04 00:45:00,
2013-01-03 20:46:00,75.4,70.6,29.98,North,-999,0.0,0.0,85,0.00,,,-99.99,0,WeatherLink 5.4,2013-01-04 00:46:00,
2013-01-03 20:47:00,75.4,70.9,29.98,North,-999,0.0,0.0,86,0.00,,,-99.99,0,WeatherLink 5.4,2013-01-04 00:47:00,
2013-01-03 20:48:00,75.4,70.9,29.98,North,-999,0.0,0.0,86,0.00,,,-99.99,0,WeatherLink 5.4,2013-01-04 00:48:00,
2013-01-03 20:49:00,75.4,70.9,29.98,North,-999,0.0,0.0,86,0.00,,,-99.99,0,WeatherLink 5.4,2013-01-04 00:49:00,
2013-01-03 20:50:00,75.4,70.9,29.98,North,-999,0.0,0.0,86,0.00,,,-99.99,0,WeatherLink 5.4,2013-01-04 00:50:00,
2013-01-03 20:51:00,75.4,70.9,29.98,North,-999,0.0,0.0,86,0.00,,,-99.99,0,WeatherLink 5.4,2013-01-04 00:51:00,
2013-01-03 20:52:00,75.4,70.9,29.98,North,-999,0.0,0.0,86,0.00,,,-99.99,0,WeatherLink 5.4,2013-01-04 00:52:00,
2013-01-03 20:53:00,75.4,70.9,29.98,North,-999,0.0,0.0,86,0.00,,,-99.99,0,WeatherLink 5.4,2013-01-04 00:53:00,
2013-01-03 20:54:00,75.4,70.9,29.98,North,-999,0.0,0.0,86,0.00,,,-99.99,0,WeatherLink 5.4,2013-01-04 00:54:00,
2013-01-03 20:55:00,75.4,70.9,29.98,North,-999,0.0,0.0,86,0.00,,,-99.99,0,WeatherLink 5.4,2013-01-04 00:55:00,
2013-01-03 20:56:00,75.4,70.9,29.98,North,-999,0.0,0.0,86,0.00,,,-99.99,0,WeatherLink 5.4,2013-01-04 00:56:00,
2013-01-03 20:57:00,75.3,70.8,29.98,North,-999,0.0,0.0,86,0.00,,,-99.99,0,WeatherLink 5.4,2013-01-04 00:57:00,
2013-01-03 20:58:00,75.3,70.8,29.98,North,-999,0.0,0.0,86,0.00,,,-99.99,0,WeatherLink 5.4,2013-01-04 00:58:00,
2013-01-03 20:59:00,75.3,70.8,29.98,North,-999,0.0,0.0,86,0.00,,,-99.99,0,WeatherLink 5.4,2013-01-04 00:59:00,
2013-01-03 21:00:00,75.3,70.8,29.99,North,-999,0.0,0.0,86,0.00,,,-99.99,0,WeatherLink 5.4,2013-01-04 01:00:00,
2013-01-03 21:01:00,75.3,70.8,29.99,North,-999,0.0,0.0,86,0.00,,,-99.99,0,WeatherLink 5.4,2013-01-04 01:01:00,
2013-01-03 21:02:00,75.3,70.8,29.99,North,-999,0.0,0.0,86,0.00,,,-99.99,0,WeatherLink 5.4,2013-01-04 01:02:00,
2013-01-03 21:03:00,75.3,70.8,29.99,North,-999,0.0,0.0,86,0.00,,,-99.99,0,WeatherLink 5.4,2013-01-04 01:03:00,
2013-01-03 21:04:00,75.3,70.8,29.99,North,-999,0.0,0.0,86,0.00,,,-99.99,0,WeatherLink 5.4,2013-01-04 01:04:00,
2013-01-03 21:05:00,75.3,70.8,29.99,North,-999,0.0,0.0,86,0.00,,,-99.99,0,WeatherLink 5.4,2013-01-04 01:05:00,
2013-01-03 21:06:00,75.3,70.8,29.99,North,-999,0.0,0.0,86,0.00,,,-99.99,0,WeatherLink 5.4,2013-01-04 01:06:00,
2013-01-03 21:07:00,75.3,70.8,29.99,North,-999,0.0,0.0,86,0.00,,,-99.99,0,WeatherLink 5.4,2013-01-04 01:07:00,
2013-01-03 21:08:00,75.3,70.8,29.99,North,-999,0.0,0.0,86,0.00,,,-99.99,0,WeatherLink 5.4,2013-01-04 01:08:00,
2013-01-03 21:09:00,75.3,70.8,29.99,North,-999,0.0,0.0,86,0.00,,,-99.99,0,WeatherLink 5.4,2013-01-04 01:09:00,
2013-01-03 21:10:00,75.3,70.8,29.99,North,-999,0.0,0.0,86,0.00,,,-99.99,0,WeatherLink 5.4,2013-01-04 01:10:00,
2013-01-03 21:11:00,75.3,70.8,29.99,North,-999,0.0,0.0,86,0.00,,,-99.99,0,WeatherLink 5.4,2013-01-04 01:11:00,
2013-01-03 21:12:00,75.3,70.8,29.99,North,-999,0.0,0.0,86,0.00,,,-99.99,0,WeatherLink 5.4,2013-01-04 01:12:00,
2013-01-03 21:13:00,75.3,70.8,29.99,North,-999,0.0,0.0,86,0.00,,,-99.99,0,WeatherLink 5.4,2013-01-04 01:13:00,
2013-01-03 21:14:00,75.3,70.8,29.99,North,-999,0.0,0.0,86,0.00,,,-99.99,0,WeatherLink 5.4,2013-01-04 01:14:00,
2013-01-03 21:15:00,75.3,70.8,29.99,North,-999,0.0,0.0,86,0.00,,,-99.99,0,WeatherLink 5.4,2013-01-04 01:15:00,
2013-01-03 21:16:00,75.3,70.8,29.99,North,-999,0.0,0.0,86,0.00,,,-99.99,0,WeatherLink 5.4,2013-01-04 01:16:00,
2013-01-03 21:17:00,75.2,70.7,29.99,North,-999,0.0,0.0,86,0.00,,,-99.99,0,WeatherLink 5.4,2013-01-04 01:17:00,
2013-01-03 21:18:00,75.1,70.6,29.99,North,-999,0.0,0.0,86,0.00,,,-99.99,0,WeatherLink 5.4,2013-01-04 01:18:00,
2013-01-03 21:19:00,75.1,71.0,29.99,North,-999,0.0,0.0,87,0.00,,,-99.99,0,WeatherLink 5.4,2013-01-04 01:19:00,
2013-01-03 21:20:00,75.1,71.0,29.99,North,-999,0.0,0.0,87,0.00,,,-99.99,0,WeatherLink 5.4,2013-01-04 01:20:00,
2013-01-03 21:21:00,75.1,70.6,29.99,North,-999,0.0,0.0,86,0.00,,,-99.99,0,WeatherLink 5.4,2013-01-04 01:21:00,
2013-01-03 21:22:00,75.1,71.0,29.99,North,-999,0.0,0.0,87,0.00,,,-99.99,0,WeatherLink 5.4,2013-01-04 01:22:00,
2013-01-03 21:23:00,75.1,70.6,29.99,North,-999,0.0,0.0,86,0.00,,,-99.99,0,WeatherLink 5.4,2013-01-04 01:23:00,
2013-01-03 21:24:00,75.1,70.6,29.99,North,-999,0.0,0.0,86,0.00,,,-99.99,0,WeatherLink 5.4,2013-01-04 01:24:00,
2013-01-03 21:25:00,75.1,71.0,29.99,North,-999,0.0,0.0,87,0.00,,,-99.99,0,WeatherLink 5.4,2013-01-04 01:25:00,
2013-01-03 21:26:00,75.1,71.0,29.99,North,-999,0.0,0.0,87,0.00,,,-99.99,0,WeatherLink 5.4,2013-01-04 01:26:00,
2013-01-03 21:27:00,75.1,71.0,29.99,North,-999,0.0,0.0,87,0.00,,,-99.99,0,WeatherLink 5.4,2013-01-04 01:27:00,
2013-01-03 21:28:00,75.1,71.0,29.99,North,-999,0.0,0.0,87,0.00,,,-99.99,0,WeatherLink 5.4,2013-01-04 01:28:00,
2013-01-03 21:29:00,75.1,71.0,29.99,North,-999,0.0,0.0,87,0.00,,,-99.99,0,WeatherLink 5.4,2013-01-04 01:29:00,
2013-01-03 21:30:00,75.1,71.0,29.99,North,-999,0.0,0.0,87,0.00,,,-99.99,0,WeatherLink 5.4,2013-01-04 01:30:00,
2013-01-03 21:31:00,75.1,71.0,29.99,North,-999,0.0,0.0,87,0.00,,,-99.99,0,WeatherLink 5.4,2013-01-04 01:31:00,
2013-01-03 21:32:00,75.1,71.0,29.99,North,-999,0.0,0.0,87,0.00,,,-99.99,0,WeatherLink 5.4,2013-01-04 01:32:00,
2013-01-03 21:33:00,75.1,71.0,29.99,North,-999,0.0,0.0,87,0.00,,,-99.99,0,WeatherLink 5.4,2013-01-04 01:33:00,
2013-01-03 21:34:00,74.9,70.8,29.99,North,-999,0.0,0.0,87,0.00,,,-99.99,0,WeatherLink 5.4,2013-01-04 01:34:00,
2013-01-03 21:35:00,74.9,70.8,29.99,North,-999,0.0,0.0,87,0.00,,,-99.99,0,WeatherLink 5.4,2013-01-04 01:35:00,
2013-01-03 21:36:00,74.9,70.8,29.99,North,-999,0.0,0.0,87,0.00,,,-99.99,0,WeatherLink 5.4,2013-01-04 01:36:00,
2013-01-03 21:37:00,74.9,70.8,29.99,North,-999,0.0,0.0,87,0.00,,,-99.99,0,WeatherLink 5.4,2013-01-04 01:37:00,
2013-01-03 21:38:00,74.9,70.8,29.99,North,-999,0.0,0.0,87,0.00,,,-99.99,0,WeatherLink 5.4,2013-01-04 01:38:00,
2013-01-03 21:39:00,74.9,70.8,29.99,North,-999,0.0,0.0,87,0.00,,,-99.99,0,WeatherLink 5.4,2013-01-04 01:39:00,
2013-01-03 21:40:00,74.9,70.8,29.99,North,-999,0.0,0.0,87,0.00,,,-99.99,0,WeatherLink 5.4,2013-01-04 01:40:00,
2013-01-03 21:41:00,74.9,70.8,29.99,North,-999,0.0,0.0,87,0.00,,,-99.99,0,WeatherLink 5.4,2013-01-04 01:41:00,
2013-01-03 21:42:00,74.9,70.8,29.99,North,-999,0.0,0.0,87,0.00,,,-99.99,0,WeatherLink 5.4,2013-01-04 01:42:00,
2013-01-03 21:43:00,74.9,71.1,29.99,North,-999,0.0,0.0,88,0.00,,,-99.99,0,WeatherLink 5.4,2013-01-04 01:43:00,
2013-01-03 21:44:00,74.9,70.8,29.99,North,-999,0.0,0.0,87,0.00,,,-99.99,0,WeatherLink 5.4,2013-01-04 01:44:00,
2013-01-03 21:45:00,74.9,71.1,29.99,North,-999,0.0,0.0,88,0.00,,,-99.99,0,WeatherLink 5.4,2013-01-04 01:45:00,
2013-01-03 21:46:00,74.9,71.1,29.99,North,-999,0.0,0.0,88,0.00,,,-99.99,0,WeatherLink 5.4,2013-01-04 01:46:00,
2013-01-03 21:47:00,74.8,71.0,29.99,North,-999,0.0,0.0,88,0.00,,,-99.99,0,WeatherLink 5.4,2013-01-04 01:47:00,
2013-01-03 21:48:00,74.7,70.9,29.99,North,-999,0.0,0.0,88,0.00,,,-99.99,0,WeatherLink 5.4,2013-01-04 01:48:00,
2013-01-03 21:49:00,74.7,70.9,29.99,North,-999,0.0,0.0,88,0.00,,,-99.99,0,WeatherLink 5.4,2013-01-04 01:49:00,
2013-01-03 21:50:00,74.7,70.9,29.99,North,-999,0.0,0.0,88,0.00,,,-99.99,0,WeatherLink 5.4,2013-01-04 01:50:00,
2013-01-03 21:51:00,74.7,70.9,29.99,North,-999,0.0,0.0,88,0.00,,,-99.99,0,WeatherLink 5.4,2013-01-04 01:51:00,
2013-01-03 21:52:00,74.7,70.9,29.99,North,-999,0.0,0.0,88,0.00,,,-99.99,0,WeatherLink 5.4,2013-01-04 01:52:00,
2013-01-03 21:53:00,74.7,70.9,29.99,North,-999,0.0,0.0,88,0.00,,,-99.99,0,WeatherLink 5.4,2013-01-04 01:53:00,
2013-01-03 21:54:00,74.7,70.9,29.99,North,-999,0.0,0.0,88,0.00,,,-99.99,0,WeatherLink 5.4,2013-01-04 01:54:00,
2013-01-03 21:55:00,74.7,70.9,29.99,North,-999,0.0,0.0,88,0.00,,,-99.99,0,WeatherLink 5.4,2013-01-04 01:55:00,
2013-01-03 21:56:00,74.7,70.9,29.99,North,-999,0.0,0.0,88,0.00,,,-99.99,0,WeatherLink 5.4,2013-01-04 01:56:00,
2013-01-03 21:57:00,74.7,70.9,29.99,North,-999,0.0,0.0,88,0.00,,,-99.99,0,WeatherLink 5.4,2013-01-04 01:57:00,
2013-01-03 21:58:00,74.6,70.8,29.99,North,-999,0.0,0.0,88,0.00,,,-99.99,0,WeatherLink 5.4,2013-01-04 01:58:00,
2013-01-03 21:59:00,74.6,70.8,29.99,North,-999,0.0,0.0,88,0.00,,,-99.99,0,WeatherLink 5.4,2013-01-04 01:59:00,
2013-01-03 22:00:00,74.6,70.8,30.00,North,-999,0.0,0.0,88,0.00,,,-99.99,0,WeatherLink 5.4,2013-01-04 02:00:00,
2013-01-03 22:01:00,74.6,70.8,30.00,North,-999,0.0,0.0,88,0.00,,,-99.99,0,WeatherLink 5.4,2013-01-04 02:01:00,
2013-01-03 22:02:00,74.6,70.8,30.00,North,-999,0.0,0.0,88,0.00,,,-99.99,0,WeatherLink 5.4,2013-01-04 02:02:00,
2013-01-03 22:03:00,74.6,70.8,30.00,North,-999,0.0,0.0,88,0.00,,,-99.99,0,WeatherLink 5.4,2013-01-04 02:03:00,
2013-01-03 22:04:00,74.6,70.8,30.00,North,-999,0.0,0.0,88,0.00,,,-99.99,0,WeatherLink 5.4,2013-01-04 02:04:00,
2013-01-03 22:05:00,74.6,70.8,30.00,North,-999,0.0,0.0,88,0.00,,,-99.99,0,WeatherLink 5.4,2013-01-04 02:05:00,
2013-01-03 22:06:00,74.6,70.8,30.00,North,-999,0.0,0.0,88,0.00,,,-99.99,0,WeatherLink 5.4,2013-01-04 02:06:00,
2013-01-03 22:07:00,74.6,70.8,30.00,North,-999,0.0,0.0,88,0.00,,,-99.99,0,WeatherLink 5.4,2013-01-04 02:07:00,
2013-01-03 22:08:00,74.6,70.8,30.00,North,-999,0.0,0.0,88,0.00,,,-99.99,0,WeatherLink 5.4,2013-01-04 02:08:00,
2013-01-03 22:09:00,74.6,70.8,30.00,North,-999,0.0,0.0,88,0.00,,,-99.99,0,WeatherLink 5.4,2013-01-04 02:09:00,
2013-01-03 22:10:00,74.6,70.8,30.00,North,-999,0.0,0.0,88,0.00,,,-99.99,0,WeatherLink 5.4,2013-01-04 02:10:00,
2013-01-03 22:11:00,74.6,70.8,30.00,North,-999,0.0,0.0,88,0.00,,,-99.99,0,WeatherLink 5.4,2013-01-04 02:11:00,
2013-01-03 22:12:00,74.6,70.8,30.00,North,-999,0.0,0.0,88,0.00,,,-99.99,0,WeatherLink 5.4,2013-01-04 02:12:00,
2013-01-03 22:13:00,74.6,70.8,30.00,North,-999,0.0,0.0,88,0.00,,,-99.99,0,WeatherLink 5.4,2013-01-04 02:13:00,
2013-01-03 22:14:00,74.5,70.7,30.00,North,-999,0.0,0.0,88,0.00,,,-99.99,0,WeatherLink 5.4,2013-01-04 02:14:00,
2013-01-03 22:15:00,74.4,70.6,29.99,North,-999,0.0,0.0,88,0.00,,,-99.99,0,WeatherLink 5.4,2013-01-04 02:15:00,
2013-01-03 22:16:00,74.4,70.6,29.99,North,-999,0.0,0.0,88,0.00,,,-99.99,0,WeatherLink 5.4,2013-01-04 02:16:00,
2013-01-03 22:17:00,74.4,70.6,29.99,North,-999,0.0,0.0,88,0.00,,,-99.99,0,WeatherLink 5.4,2013-01-04 02:17:00,
2013-01-03 22:18:00,74.4,70.6,29.99,North,-999,0.0,0.0,88,0.00,,,-99.99,0,WeatherLink 5.4,2013-01-04 02:18:00,
2013-01-03 22:19:00,74.5,70.7,29.99,North,-999,0.0,0.0,88,0.00,,,-99.99,0,WeatherLink 5.4,2013-01-04 02:19:00,
2013-01-03 22:20:00,74.6,70.8,29.99,North,-999,0.0,0.0,88,0.00,,,-99.99,0,WeatherLink 5.4,2013-01-04 02:20:00,
2013-01-03 22:21:00,74.6,70.8,29.99,North,-999,0.0,0.0,88,0.00,,,-99.99,0,WeatherLink 5.4,2013-01-04 02:21:00,
2013-01-03 22:22:00,74.6,70.8,29.99,North,-999,0.0,0.0,88,0.00,,,-99.99,0,WeatherLink 5.4,2013-01-04 02:22:00,
2013-01-03 22:23:00,74.6,70.8,29.99,North,-999,0.0,0.0,88,0.00,,,-99.99,0,WeatherLink 5.4,2013-01-04 02:23:00,
2013-01-03 22:24:00,74.6,70.8,29.99,North,-999,0.0,0.0,88,0.00,,,-99.99,0,WeatherLink 5.4,2013-01-04 02:24:00,
2013-01-03 22:25:00,74.6,71.1,29.99,North,-999,0.0,0.0,89,0.00,,,-99.99,0,WeatherLink 5.4,2013-01-04 02:25:00,
2013-01-03 22:26:00,74.6,71.1,29.99,North,-999,0.0,0.0,89,0.00,,,-99.99,0,WeatherLink 5.4,2013-01-04 02:26:00,
2013-01-03 22:27:00,74.6,71.1,29.99,North,-999,0.0,0.0,89,0.00,,,-99.99,0,WeatherLink 5.4,2013-01-04 02:27:00,
2013-01-03 22:28:00,74.6,71.1,29.99,North,-999,0.0,0.0,89,0.00,,,-99.99,0,WeatherLink 5.4,2013-01-04 02:28:00,
2013-01-03 22:29:00,74.6,71.1,29.99,North,-999,0.0,0.0,89,0.00,,,-99.99,0,WeatherLink 5.4,2013-01-04 02:29:00,
2013-01-03 22:30:00,74.6,71.1,30.00,North,-999,0.0,0.0,89,0.00,,,-99.99,0,WeatherLink 5.4,2013-01-04 02:30:00,
2013-01-03 22:31:00,74.6,71.1,30.00,North,-999,0.0,0.0,89,0.00,,,-99.99,0,WeatherLink 5.4,2013-01-04 02:31:00,
2013-01-03 22:32:00,74.6,71.1,30.00,North,-999,0.0,0.0,89,0.00,,,-99.99,0,WeatherLink 5.4,2013-01-04 02:32:00,
2013-01-03 22:33:00,74.6,71.1,30.00,North,-999,0.0,0.0,89,0.00,,,-99.99,0,WeatherLink 5.4,2013-01-04 02:33:00,
2013-01-03 22:34:00,74.6,71.1,30.00,North,-999,0.0,0.0,89,0.00,,,-99.99,0,WeatherLink 5.4,2013-01-04 02:34:00,
2013-01-03 22:35:00,74.6,71.1,30.00,North,-999,0.0,0.0,89,0.00,,,-99.99,0,WeatherLink 5.4,2013-01-04 02:35:00,
2013-01-03 22:36:00,74.6,71.1,30.00,North,-999,0.0,0.0,89,0.00,,,-99.99,0,WeatherLink 5.4,2013-01-04 02:36:00,
2013-01-03 22:37:00,74.6,71.1,30.00,North,-999,0.0,0.0,89,0.00,,,-99.99,0,WeatherLink 5.4,2013-01-04 02:37:00,
2013-01-03 22:38:00,74.6,71.1,30.00,North,-999,0.0,0.0,89,0.00,,,-99.99,0,WeatherLink 5.4,2013-01-04 02:38:00,
2013-01-03 22:39:00,74.6,71.1,30.00,North,-999,0.0,0.0,89,0.00,,,-99.99,0,WeatherLink 5.4,2013-01-04 02:39:00,
2013-01-03 22:40:00,74.6,71.1,30.00,North,-999,0.0,0.0,89,0.00,,,-99.99,0,WeatherLink 5.4,2013-01-04 02:40:00,
2013-01-03 22:41:00,74.6,71.1,30.00,North,-999,0.0,0.0,89,0.00,,,-99.99,0,WeatherLink 5.4,2013-01-04 02:41:00,
2013-01-03 22:42:00,74.6,71.1,30.00,North,-999,0.0,0.0,89,0.00,,,-99.99,0,WeatherLink 5.4,2013-01-04 02:42:00,
2013-01-03 22:43:00,74.6,71.1,30.00,North,-999,0.0,0.0,89,0.00,,,-99.99,0,WeatherLink 5.4,2013-01-04 02:43:00,
2013-01-03 22:44:00,74.6,71.1,30.00,North,-999,0.0,0.0,89,0.00,,,-99.99,0,WeatherLink 5.4,2013-01-04 02:44:00,
2013-01-03 22:45:00,74.6,71.1,30.00,North,-999,0.0,0.0,89,0.00,,,-99.99,0,WeatherLink 5.4,2013-01-04 02:45:00,
2013-01-03 22:46:00,74.6,71.1,30.00,North,-999,0.0,0.0,89,0.00,,,-99.99,0,WeatherLink 5.4,2013-01-04 02:46:00,
2013-01-03 22:47:00,74.6,71.1,30.00,North,-999,0.0,0.0,89,0.00,,,-99.99,0,WeatherLink 5.4,2013-01-04 02:47:00,
2013-01-03 22:48:00,74.4,70.9,30.00,North,-999,0.0,0.0,89,0.00,,,-99.99,0,WeatherLink 5.4,2013-01-04 02:48:00,
2013-01-03 22:49:00,74.4,70.9,30.00,North,-999,0.0,0.0,89,0.00,,,-99.99,0,WeatherLink 5.4,2013-01-04 02:49:00,
2013-01-03 22:50:00,74.4,70.9,30.00,North,-999,0.0,0.0,89,0.00,,,-99.99,0,WeatherLink 5.4,2013-01-04 02:50:00,
2013-01-03 22:51:00,74.4,70.9,30.00,North,-999,0.0,0.0,89,0.00,,,-99.99,0,WeatherLink 5.4,2013-01-04 02:51:00,
2013-01-03 22:52:00,74.4,70.9,30.00,North,-999,0.0,0.0,89,0.00,,,-99.99,0,WeatherLink 5.4,2013-01-04 02:52:00,
2013-01-03 22:53:00,74.4,70.9,30.00,North,-999,0.0,0.0,89,0.00,,,-99.99,0,WeatherLink 5.4,2013-01-04 02:53:00,
2013-01-03 22:54:00,74.4,70.9,30.00,North,-999,0.0,0.0,89,0.00,,,-99.99,0,WeatherLink 5.4,2013-01-04 02:54:00,
2013-01-03 22:55:00,74.4,70.9,30.00,North,-999,0.0,0.0,89,0.00,,,-99.99,0,WeatherLink 5.4,2013-01-04 02:55:00,
2013-01-03 22:56:00,74.4,70.9,30.00,North,-999,0.0,0.0,89,0.00,,,-99.99,0,WeatherLink 5.4,2013-01-04 02:56:00,
2013-01-03 22:57:00,74.4,70.9,30.00,North,-999,0.0,0.0,89,0.00,,,-99.99,0,WeatherLink 5.4,2013-01-04 02:57:00,
2013-01-03 22:58:00,74.3,70.8,30.00,North,-999,0.0,0.0,89,0.00,,,-99.99,0,WeatherLink 5.4,2013-01-04 02:58:00,
2013-01-03 22:59:00,74.2,70.7,30.00,North,-999,0.0,0.0,89,0.00,,,-99.99,0,WeatherLink 5.4,2013-01-04 02:59:00,
2013-01-03 23:00:00,74.2,70.7,30.00,North,-999,0.0,0.0,89,0.00,,,-99.99,0,WeatherLink 5.4,2013-01-04 03:00:00,
2013-01-03 23:01:00,74.2,70.7,30.00,North,-999,0.0,0.0,89,0.00,,,-99.99,0,WeatherLink 5.4,2013-01-04 03:01:00,
2013-01-03 23:02:00,74.2,70.7,30.00,North,-999,0.0,0.0,89,0.00,,,-99.99,0,WeatherLink 5.4,2013-01-04 03:02:00,
2013-01-03 23:03:00,74.2,70.7,30.00,North,-999,0.0,0.0,89,0.00,,,-99.99,0,WeatherLink 5.4,2013-01-04 03:03:00,
2013-01-03 23:04:00,74.2,70.7,30.00,North,-999,0.0,0.0,89,0.00,,,-99.99,0,WeatherLink 5.4,2013-01-04 03:04:00,
2013-01-03 23:05:00,74.2,70.7,30.00,North,-999,0.0,0.0,89,0.00,,,-99.99,0,WeatherLink 5.4,2013-01-04 03:05:00,
2013-01-03 23:06:00,74.2,70.7,30.00,North,-999,0.0,0.0,89,0.00,,,-99.99,0,WeatherLink 5.4,2013-01-04 03:06:00,
2013-01-03 23:07:00,74.1,70.6,30.00,North,-999,0.0,0.0,89,0.00,,,-99.99,0,WeatherLink 5.4,2013-01-04 03:07:00,
2013-01-03 23:08:00,74.0,70.6,30.00,North,-999,0.0,0.0,89,0.00,,,-99.99,0,WeatherLink 5.4,2013-01-04 03:08:00,
2013-01-03 23:09:00,74.0,70.6,30.00,North,-999,0.0,0.0,89,0.00,,,-99.99,0,WeatherLink 5.4,2013-01-04 03:09:00,
2013-01-03 23:10:00,74.0,70.6,30.00,North,-999,0.0,0.0,89,0.00,,,-99.99,0,WeatherLink 5.4,2013-01-04 03:10:00,
2013-01-03 23:11:00,74.0,70.6,30.00,North,-999,0.0,0.0,89,0.00,,,-99.99,0,WeatherLink 5.4,2013-01-04 03:11:00,
2013-01-03 23:12:00,74.0,70.6,30.00,North,-999,0.0,0.0,89,0.00,,,-99.99,0,WeatherLink 5.4,2013-01-04 03:12:00,
2013-01-03 23:13:00,74.0,70.6,30.00,North,-999,0.0,0.0,89,0.00,,,-99.99,0,WeatherLink 5.4,2013-01-04 03:13:00,
2013-01-03 23:14:00,74.0,70.6,30.00,North,-999,0.0,0.0,89,0.00,,,-99.99,0,WeatherLink 5.4,2013-01-04 03:14:00,
2013-01-03 23:15:00,73.9,70.5,30.00,North,-999,0.0,0.0,89,0.00,,,-99.99,0,WeatherLink 5.4,2013-01-04 03:15:00,
2013-01-03 23:16:00,73.9,70.5,30.00,North,-999,0.0,0.0,89,0.00,,,-99.99,0,WeatherLink 5.4,2013-01-04 03:16:00,
2013-01-03 23:17:00,73.9,70.5,30.00,North,-999,0.0,0.0,89,0.00,,,-99.99,0,WeatherLink 5.4,2013-01-04 03:17:00,
2013-01-03 23:18:00,73.9,70.5,30.00,North,-999,0.0,0.0,89,0.00,,,-99.99,0,WeatherLink 5.4,2013-01-04 03:18:00,
2013-01-03 23:19:00,73.9,70.5,30.00,North,-999,0.0,0.0,89,0.00,,,-99.99,0,WeatherLink 5.4,2013-01-04 03:19:00,
2013-01-03 23:20:00,73.9,70.5,30.00,North,-999,0.0,0.0,89,0.00,,,-99.99,0,WeatherLink 5.4,2013-01-04 03:20:00,
2013-01-03 23:21:00,73.9,70.5,30.00,North,-999,0.0,0.0,89,0.00,,,-99.99,0,WeatherLink 5.4,2013-01-04 03:21:00,
2013-01-03 23:22:00,73.9,70.5,30.00,North,-999,0.0,0.0,89,0.00,,,-99.99,0,WeatherLink 5.4,2013-01-04 03:22:00,
2013-01-03 23:23:00,73.9,70.5,30.00,North,-999,0.0,0.0,89,0.00,,,-99.99,0,WeatherLink 5.4,2013-01-04 03:23:00,
2013-01-03 23:24:00,73.8,70.4,30.00,North,-999,0.0,0.0,89,0.00,,,-99.99,0,WeatherLink 5.4,2013-01-04 03:24:00,
2013-01-03 23:25:00,73.7,70.3,30.00,North,-999,0.0,0.0,89,0.00,,,-99.99,0,WeatherLink 5.4,2013-01-04 03:25:00,
2013-01-03 23:26:00,73.7,70.3,30.00,North,-999,0.0,0.0,89,0.00,,,-99.99,0,WeatherLink 5.4,2013-01-04 03:26:00,
2013-01-03 23:27:00,73.7,70.3,30.00,North,-999,0.0,0.0,89,0.00,,,-99.99,0,WeatherLink 5.4,2013-01-04 03:27:00,
2013-01-03 23:28:00,73.7,70.3,30.00,North,-999,0.0,0.0,89,0.00,,,-99.99,0,WeatherLink 5.4,2013-01-04 03:28:00,
2013-01-03 23:29:00,73.7,70.3,30.00,North,-999,0.0,0.0,89,0.00,,,-99.99,0,WeatherLink 5.4,2013-01-04 03:29:00,
2013-01-03 23:30:00,73.7,70.3,29.99,North,-999,0.0,0.0,89,0.00,,,-99.99,0,WeatherLink 5.4,2013-01-04 03:30:00,
2013-01-03 23:31:00,73.7,70.3,29.99,North,-999,0.0,0.0,89,0.00,,,-99.99,0,WeatherLink 5.4,2013-01-04 03:31:00,
2013-01-03 23:32:00,73.7,70.3,29.99,North,-999,0.0,0.0,89,0.00,,,-99.99,0,WeatherLink 5.4,2013-01-04 03:32:00,
2013-01-03 23:33:00,73.6,70.2,29.99,North,-999,0.0,0.0,89,0.00,,,-99.99,0,WeatherLink 5.4,2013-01-04 03:33:00,
2013-01-03 23:34:00,73.5,70.1,29.99,North,-999,0.0,0.0,89,0.00,,,-99.99,0,WeatherLink 5.4,2013-01-04 03:34:00,
2013-01-03 23:35:00,73.5,70.1,29.99,North,-999,0.0,0.0,89,0.00,,,-99.99,0,WeatherLink 5.4,2013-01-04 03:35:00,
2013-01-03 23:36:00,73.5,70.1,29.99,North,-999,0.0,0.0,89,0.00,,,-99.99,0,WeatherLink 5.4,2013-01-04 03:36:00,
2013-01-03 23:37:00,73.5,70.1,29.99,North,-999,0.0,0.0,89,0.00,,,-99.99,0,WeatherLink 5.4,2013-01-04 03:37:00,
2013-01-03 23:38:00,73.5,70.1,29.99,North,-999,0.0,0.0,89,0.00,,,-99.99,0,WeatherLink 5.4,2013-01-04 03:38:00,
2013-01-03 23:39:00,73.5,70.1,29.99,North,-999,0.0,0.0,89,0.00,,,-99.99,0,WeatherLink 5.4,2013-01-04 03:39:00,
2013-01-03 23:40:00,73.4,70.0,29.99,North,-999,0.0,0.0,89,0.00,,,-99.99,0,WeatherLink 5.4,2013-01-04 03:40:00,
2013-01-03 23:41:00,73.3,69.9,29.99,North,-999,0.0,0.0,89,0.00,,,-99.99,0,WeatherLink 5.4,2013-01-04 03:41:00,
2013-01-03 23:42:00,73.3,69.9,29.99,North,-999,0.0,0.0,89,0.00,,,-99.99,0,WeatherLink 5.4,2013-01-04 03:42:00,
2013-01-03 23:43:00,73.3,69.9,29.99,North,-999,0.0,0.0,89,0.00,,,-99.99,0,WeatherLink 5.4,2013-01-04 03:43:00,
2013-01-03 23:44:00,73.3,69.9,29.99,North,-999,0.0,0.0,89,0.00,,,-99.99,0,WeatherLink 5.4,2013-01-04 03:44:00,
2013-01-03 23:45:00,73.3,69.9,29.99,North,-999,0.0,0.0,89,0.00,,,-99.99,0,WeatherLink 5.4,2013-01-04 03:45:00,
2013-01-03 23:46:00,73.3,69.9,29.99,North,-999,0.0,0.0,89,0.00,,,-99.99,0,WeatherLink 5.4,2013-01-04 03:46:00,
2013-01-03 23:47:00,73.2,69.8,29.99,North,-999,0.0,0.0,89,0.00,,,-99.99,0,WeatherLink 5.4,2013-01-04 03:47:00,
2013-01-03 23:48:00,73.2,70.1,29.99,North,-999,0.0,0.0,90,0.00,,,-99.99,0,WeatherLink 5.4,2013-01-04 03:48:00,
2013-01-03 23:49:00,73.2,69.8,29.99,North,-999,0.0,0.0,89,0.00,,,-99.99,0,WeatherLink 5.4,2013-01-04 03:49:00,
2013-01-03 23:50:00,73.2,70.1,29.99,North,-999,0.0,0.0,90,0.00,,,-99.99,0,WeatherLink 5.4,2013-01-04 03:50:00,
2013-01-03 23:51:00,73.2,70.1,29.99,North,-999,0.0,0.0,90,0.00,,,-99.99,0,WeatherLink 5.4,2013-01-04 03:51:00,
2013-01-03 23:52:00,73.2,70.1,29.99,North,-999,0.0,0.0,90,0.00,,,-99.99,0,WeatherLink 5.4,2013-01-04 03:52:00,
2013-01-03 23:53:00,73.2,70.1,29.99,North,-999,0.0,0.0,90,0.00,,,-99.99,0,WeatherLink 5.4,2013-01-04 03:53:00,
2013-01-03 23:54:00,73.2,70.1,29.99,North,-999,0.0,0.0,90,0.00,,,-99.99,0,WeatherLink 5.4,2013-01-04 03:54:00,
2013-01-03 23:55:00,73.2,70.1,29.99,North,-999,0.0,0.0,90,0.00,,,-99.99,0,WeatherLink 5.4,2013-01-04 03:55:00,
2013-01-03 23:56:00,73.2,70.1,29.99,North,-999,0.0,0.0,90,0.00,,,-99.99,0,WeatherLink 5.4,2013-01-04 03:56:00,
2013-01-03 23:57:00,73.1,70.0,29.99,North,-999,0.0,0.0,90,0.00,,,-99.99,0,WeatherLink 5.4,2013-01-04 03:57:00,
2013-01-03 23:58:00,73.0,69.9,29.99,North,-999,0.0,0.0,90,0.00,,,-99.99,0,WeatherLink 5.4,2013-01-04 03:58:00,
2013-01-03 23:59:00,73.0,69.9,29.99,North,-999,0.0,0.0,90,0.00,,,-99.99,0,WeatherLink 5.4,2013-01-04 03:59:00,